Wetterdaten: Freitag, 05.03.2021
Datum Zeit Temp. Aussen Temp. o. S. Temp +5cm Feuchte Auss Luftdruck Regen Sonnenschein Regendauer Solar Windben Empfang
05.03.2021 00:00 2,9 C 2,2 C 1,7 C 94 % 1022,4 hPa 0,0 l/m 0 min 0 min 0 W/m 9,7 km/h (2 Bft) 51,72 %
05.03.2021 00:02 2,9 C 2,2 C 1,7 C 94 % 1022,4 hPa 0,0 l/m 0 min 0 min 0 W/m 16,1 km/h (3 Bft) 97,50 %
05.03.2021 00:04 2,9 C 2,2 C 1,7 C 94 % 1022,4 hPa 0,0 l/m 0 min 0 min 0 W/m 19,3 km/h (3 Bft) 97,87 %
05.03.2021 00:08 2,9 C 2,2 C 1,7 C 94 % 1022,5 hPa 0,0 l/m 0 min 0 min 0 W/m 16,1 km/h (3 Bft) 95,70 %
05.03.2021 00:10 2,8 C 2,2 C 1,7 C 94 % 1022,6 hPa 0,0 l/m 0 min 0 min 0 W/m 6,4 km/h (2 Bft) 93,62 %
05.03.2021 00:12 2,9 C 2,2 C 1,7 C 94 % 1022,5 hPa 0,0 l/m 0 min 0 min 0 W/m 9,7 km/h (2 Bft) 97,87 %
05.03.2021 00:14 2,9 C 2,2 C 1,7 C 94 % 1022,5 hPa 0,0 l/m 0 min 0 min 0 W/m 9,7 km/h (2 Bft) 95,74 %
05.03.2021 00:16 2,9 C 2,2 C 1,7 C 94 % 1022,5 hPa 0,0 l/m 0 min 0 min 0 W/m 6,4 km/h (2 Bft) 95,74 %
05.03.2021 00:18 2,9 C 2,2 C 1,7 C 93 % 1022,5 hPa 0,0 l/m 0 min 0 min 0 W/m 9,7 km/h (2 Bft) 97,83 %
05.03.2021 00:20 2,9 C 2,2 C 1,7 C 93 % 1022,6 hPa 0,0 l/m 0 min 0 min 0 W/m 3,2 km/h (1 Bft) 97,87 %
05.03.2021 00:22 2,9 C 2,2 C 1,7 C 93 % 1022,5 hPa 0,0 l/m 0 min 0 min 0 W/m 9,7 km/h (2 Bft) 97,87 %
05.03.2021 00:24 2,9 C 2,2 C 1,7 C 93 % 1022,6 hPa 0,0 l/m 0 min 0 min 0 W/m 12,9 km/h (3 Bft) 95,74 %
05.03.2021 00:26 2,9 C 2,2 C 1,7 C 93 % 1022,5 hPa 0,0 l/m 0 min 0 min 0 W/m 6,4 km/h (2 Bft) 97,87 %
05.03.2021 00:28 2,9 C 2,2 C 1,7 C 93 % 1022,5 hPa 0,0 l/m 0 min 0 min 0 W/m 9,7 km/h (2 Bft) 97,87 %
05.03.2021 00:30 2,9 C 2,2 C 1,7 C 93 % 1022,5 hPa 0,0 l/m 0 min 0 min 0 W/m 3,2 km/h (1 Bft) 97,83 %
05.03.2021 00:32 2,9 C 2,2 C 1,7 C 93 % 1022,6 hPa 0,0 l/m 0 min 0 min 0 W/m 9,7 km/h (2 Bft) 95,74 %
05.03.2021 00:34 2,9 C 2,2 C 1,7 C 93 % 1022,6 hPa 0,0 l/m 0 min 0 min 0 W/m 6,4 km/h (2 Bft) 97,87 %
05.03.2021 00:36 2,8 C 2,2 C 1,7 C 93 % 1022,5 hPa 0,0 l/m 0 min 0 min 0 W/m 12,9 km/h (3 Bft) 97,87 %
05.03.2021 00:38 2,8 C 2,2 C 1,7 C 93 % 1022,6 hPa 0,0 l/m 0 min 0 min 0 W/m 6,4 km/h (2 Bft) 95,74 %
05.03.2021 00:40 2,8 C 2,2 C 1,7 C 93 % 1022,6 hPa 0,0 l/m 0 min 0 min 0 W/m 6,4 km/h (2 Bft) 97,87 %
05.03.2021 00:42 2,8 C 2,2 C 1,7 C 93 % 1022,6 hPa 0,0 l/m 0 min 0 min 0 W/m 3,2 km/h (1 Bft) 95,65 %
05.03.2021 00:44 2,9 C 2,2 C 1,7 C 92 % 1022,5 hPa 0,0 l/m 0 min 0 min 0 W/m 3,2 km/h (1 Bft) 97,87 %
05.03.2021 00:46 2,9 C 2,2 C 1,7 C 92 % 1022,6 hPa 0,0 l/m 0 min 0 min 0 W/m 3,2 km/h (1 Bft) 97,87 %
05.03.2021 00:48 2,9 C 2,2 C 1,7 C 92 % 1022,6 hPa 0,0 l/m 0 min 0 min 0 W/m 3,2 km/h (1 Bft) 97,87 %
05.03.2021 00:50 2,8 C 2,2 C 1,7 C 92 % 1022,6 hPa 0,0 l/m 0 min 0 min 0 W/m 3,2 km/h (1 Bft) 95,74 %
05.03.2021 00:52 2,8 C 2,2 C 1,7 C 92 % 1022,6 hPa 0,0 l/m 0 min 0 min 0 W/m 6,4 km/h (2 Bft) 97,83 %
05.03.2021 00:54 2,8 C 2,2 C 1,7 C 92 % 1022,6 hPa 0,0 l/m 0 min 0 min 0 W/m 3,2 km/h (1 Bft) 97,87 %
05.03.2021 00:56 2,8 C 2,2 C 1,7 C 92 % 1022,6 hPa 0,0 l/m 0 min 0 min 0 W/m 0,0 km/h (0 Bft) 95,74 %
05.03.2021 00:58 2,8 C 2,2 C 1,7 C 92 % 1022,7 hPa 0,0 l/m 0 min 0 min 0 W/m 3,2 km/h (1 Bft) 97,87 %
05.03.2021 01:00 2,8 C 2,2 C 1,7 C 92 % 1022,7 hPa 0,0 l/m 0 min 0 min 0 W/m 6,4 km/h (2 Bft) 97,87 %
05.03.2021 01:02 2,8 C 2,2 C 1,7 C 92 % 1022,7 hPa 0,0 l/m 0 min 0 min 0 W/m 6,4 km/h (2 Bft) 95,74 %
05.03.2021 01:04 2,8 C 2,2 C 1,7 C 92 % 1022,8 hPa 0,0 l/m 0 min 0 min 0 W/m 6,4 km/h (2 Bft) 97,83 %
05.03.2021 01:06 2,8 C 2,2 C 1,7 C 92 % 1022,7 hPa 0,0 l/m 0 min 0 min 0 W/m 12,9 km/h (3 Bft) 97,87 %
05.03.2021 01:08 2,7 C 2,2 C 1,7 C 91 % 1022,8 hPa 0,0 l/m 0 min 0 min 0 W/m 12,9 km/h (3 Bft) 97,87 %
05.03.2021 01:10 2,7 C 2,2 C 1,7 C 91 % 1022,8 hPa 0,0 l/m 0 min 0 min 0 W/m 9,7 km/h (2 Bft) 97,87 %
05.03.2021 01:12 2,7 C 2,2 C 1,7 C 91 % 1022,9 hPa 0,0 l/m 0 min 0 min 0 W/m 9,7 km/h (2 Bft) 95,74 %
05.03.2021 01:14 2,7 C 2,2 C 1,7 C 91 % 1022,8 hPa 0,0 l/m 0 min 0 min 0 W/m 6,4 km/h (2 Bft) 97,87 %
05.03.2021 01:16 2,7 C 2,2 C 1,7 C 91 % 1022,8 hPa 0,0 l/m 0 min 0 min 0 W/m 0,0 km/h (0 Bft) 95,65 %
05.03.2021 01:18 2,7 C 2,2 C 1,7 C 91 % 1022,9 hPa 0,0 l/m 0 min 0 min 0 W/m 3,2 km/h (1 Bft) 97,87 %
05.03.2021 01:20 2,7 C 2,2 C 1,7 C 91 % 1022,9 hPa 0,0 l/m 0 min 0 min 0 W/m 3,2 km/h (1 Bft) 93,62 %
05.03.2021 01:22 2,7 C 2,2 C 1,7 C 91 % 1023,0 hPa 0,0 l/m 0 min 0 min 0 W/m 3,2 km/h (1 Bft) 95,74 %
05.03.2021 01:24 2,7 C 2,2 C 1,7 C 91 % 1023,0 hPa 0,0 l/m 0 min 0 min 0 W/m 6,4 km/h (2 Bft) 97,87 %
05.03.2021 01:26 2,6 C 2,2 C 1,1 C 91 % 1023,0 hPa 0,0 l/m 0 min 0 min 0 W/m 6,4 km/h (2 Bft) 95,74 %
05.03.2021 01:28 2,6 C 2,2 C 1,7 C 91 % 1023,0 hPa 0,0 l/m 0 min 0 min 0 W/m 6,4 km/h (2 Bft) 97,83 %
05.03.2021 01:30 2,6 C 2,2 C 1,1 C 91 % 1023,0 hPa 0,0 l/m 0 min 0 min 0 W/m 3,2 km/h (1 Bft) 95,74 %
05.03.2021 01:32 2,6 C 2,2 C 1,1 C 91 % 1023,1 hPa 0,0 l/m 0 min 0 min 0 W/m 9,7 km/h (2 Bft) 95,45 %
05.03.2021 01:34 2,6 C 2,2 C 1,1 C 91 % 1023,1 hPa 0,0 l/m 0 min 0 min 0 W/m 6,4 km/h (2 Bft) 94,83 %
05.03.2021 01:36 2,6 C 2,2 C 1,1 C 91 % 1023,1 hPa 0,0 l/m 0 min 0 min 0 W/m 12,9 km/h (3 Bft) 95,74 %
05.03.2021 01:38 2,6 C 2,2 C 1,1 C 91 % 1023,1 hPa 0,0 l/m 0 min 0 min 0 W/m 12,9 km/h (3 Bft) 95,74 %
05.03.2021 01:40 2,6 C 2,2 C 1,1 C 91 % 1023,1 hPa 0,0 l/m 0 min 0 min 0 W/m 9,7 km/h (2 Bft) 94,29 %
05.03.2021 01:42 2,6 C 2,2 C 1,1 C 91 % 1023,2 hPa 0,0 l/m 0 min 0 min 0 W/m 6,4 km/h (2 Bft) 95,74 %
05.03.2021 01:44 2,6 C 2,2 C 1,1 C 91 % 1023,1 hPa 0,0 l/m 0 min 0 min 0 W/m 6,4 km/h (2 Bft) 95,65 %
05.03.2021 01:46 2,6 C 2,2 C 1,1 C 91 % 1023,2 hPa 0,0 l/m 0 min 0 min 0 W/m 6,4 km/h (2 Bft) 95,74 %
05.03.2021 01:48 2,6 C 2,2 C 1,1 C 91 % 1023,1 hPa 0,0 l/m 0 min 0 min 0 W/m 3,2 km/h (1 Bft) 95,74 %
05.03.2021 01:50 2,6 C 2,2 C 1,1 C 91 % 1023,1 hPa 0,0 l/m 0 min 0 min 0 W/m 12,9 km/h (3 Bft) 96,61 %
05.03.2021 01:52 2,6 C 2,2 C 1,1 C 91 % 1023,1 hPa 0,0 l/m 0 min 0 min 0 W/m 6,4 km/h (2 Bft) 95,65 %
05.03.2021 01:54 2,6 C 2,2 C 1,1 C 91 % 1023,2 hPa 0,0 l/m 0 min 0 min 0 W/m 12,9 km/h (3 Bft) 94,44 %
05.03.2021 01:56 2,6 C 2,2 C 1,1 C 91 % 1023,2 hPa 0,0 l/m 0 min 0 min 0 W/m 9,7 km/h (2 Bft) 95,65 %
05.03.2021 01:58 2,6 C 2,2 C 1,7 C 91 % 1023,2 hPa 0,0 l/m 0 min 0 min 0 W/m 9,7 km/h (2 Bft) 93,62 %
05.03.2021 02:00 2,6 C 2,2 C 1,7 C 91 % 1023,2 hPa 0,0 l/m 0 min 0 min 0 W/m 3,2 km/h (1 Bft) 93,62 %
05.03.2021 02:02 2,6 C 2,2 C 1,7 C 91 % 1023,2 hPa 0,0 l/m 0 min 0 min 0 W/m 12,9 km/h (3 Bft) 95,74 %
05.03.2021 02:04 2,6 C 2,2 C 1,7 C 91 % 1023,2 hPa 0,0 l/m 0 min 0 min 0 W/m 9,7 km/h (2 Bft) 91,38 %
05.03.2021 02:06 2,6 C 2,2 C 1,7 C 90 % 1023,3 hPa 0,0 l/m 0 min 0 min 0 W/m 12,9 km/h (3 Bft) 91,49 %
05.03.2021 02:08 2,6 C 2,2 C 1,7 C 91 % 1023,2 hPa 0,0 l/m 0 min 0 min 0 W/m 12,9 km/h (3 Bft) 93,62 %
05.03.2021 02:10 2,6 C 2,2 C 1,7 C 91 % 1023,2 hPa 0,0 l/m 0 min 0 min 0 W/m 19,3 km/h (3 Bft) 95,74 %
05.03.2021 02:12 2,6 C 2,2 C 1,7 C 91 % 1023,2 hPa 0,0 l/m 0 min 0 min 0 W/m 12,9 km/h (3 Bft) 93,62 %
05.03.2021 02:14 2,7 C 2,2 C 1,7 C 91 % 1023,2 hPa 0,0 l/m 0 min 2 min 0 W/m 12,9 km/h (3 Bft) 95,74 %
05.03.2021 02:16 2,7 C 2,2 C 1,7 C 91 % 1023,2 hPa 0,0 l/m 0 min 0 min 0 W/m 12,9 km/h (3 Bft) 94,29 %
05.03.2021 02:18 2,7 C 2,2 C 1,7 C 91 % 1023,3 hPa 0,0 l/m 0 min 0 min 0 W/m 19,3 km/h (3 Bft) 95,74 %
05.03.2021 02:20 2,7 C 2,2 C 1,7 C 91 % 1023,3 hPa 0,0 l/m 0 min 0 min 0 W/m 16,1 km/h (3 Bft) 96,55 %
05.03.2021 02:22 2,7 C 2,2 C 1,7 C 91 % 1023,3 hPa 0,0 l/m 0 min 0 min 0 W/m 16,1 km/h (3 Bft) 95,74 %
05.03.2021 02:24 2,7 C 2,2 C 1,7 C 91 % 1023,3 hPa 0,0 l/m 0 min 0 min 0 W/m 9,7 km/h (2 Bft) 93,62 %
05.03.2021 02:26 2,7 C 2,2 C 1,7 C 91 % 1023,4 hPa 0,0 l/m 0 min 0 min 0 W/m 6,4 km/h (2 Bft) 94,29 %
05.03.2021 02:28 2,7 C 2,2 C 1,7 C 92 % 1023,4 hPa 0,0 l/m 0 min 0 min 0 W/m 9,7 km/h (2 Bft) 93,62 %
05.03.2021 02:30 2,7 C 2,2 C 1,7 C 92 % 1023,4 hPa 0,0 l/m 0 min 0 min 0 W/m 9,7 km/h (2 Bft) 91,49 %
05.03.2021 02:32 2,7 C 2,2 C 1,7 C 92 % 1023,3 hPa 0,0 l/m 0 min 0 min 0 W/m 6,4 km/h (2 Bft) 95,65 %
05.03.2021 02:34 2,7 C 2,2 C 1,7 C 92 % 1023,4 hPa 0,0 l/m 0 min 0 min 0 W/m 12,9 km/h (3 Bft) 96,61 %
05.03.2021 02:36 2,7 C 2,2 C 1,7 C 92 % 1023,4 hPa 0,0 l/m 0 min 0 min 0 W/m 6,4 km/h (2 Bft) 95,74 %
05.03.2021 02:38 2,7 C 2,2 C 1,7 C 92 % 1023,4 hPa 0,0 l/m 0 min 0 min 0 W/m 9,7 km/h (2 Bft) 97,87 %
05.03.2021 02:40 2,7 C 2,2 C 1,7 C 92 % 1023,4 hPa 0,0 l/m 0 min 0 min 0 W/m 9,7 km/h (2 Bft) 97,14 %
05.03.2021 02:42 2,7 C 2,2 C 1,7 C 92 % 1023,4 hPa 0,0 l/m 0 min 0 min 0 W/m 6,4 km/h (2 Bft) 97,83 %
05.03.2021 02:44 2,7 C 2,2 C 1,7 C 93 % 1023,4 hPa 0,0 l/m 0 min 0 min 0 W/m 12,9 km/h (3 Bft) 95,74 %
05.03.2021 02:46 2,7 C 2,2 C 1,7 C 92 % 1023,4 hPa 0,0 l/m 0 min 0 min 0 W/m 9,7 km/h (2 Bft) 95,74 %
05.03.2021 02:48 2,7 C 2,2 C 1,7 C 93 % 1023,4 hPa 0,0 l/m 0 min 0 min 0 W/m 9,7 km/h (2 Bft) 97,87 %
05.03.2021 02:50 2,7 C 2,2 C 1,7 C 93 % 1023,3 hPa 0,0 l/m 0 min 0 min 0 W/m 6,4 km/h (2 Bft) 97,87 %
05.03.2021 02:52 2,7 C 2,2 C 1,7 C 93 % 1023,4 hPa 0,0 l/m 0 min 0 min 0 W/m 12,9 km/h (3 Bft) 97,87 %
05.03.2021 02:54 2,8 C 2,2 C 1,7 C 93 % 1023,4 hPa 0,0 l/m 0 min 0 min 0 W/m 6,4 km/h (2 Bft) 96,55 %
05.03.2021 02:56 2,8 C 2,2 C 1,7 C 93 % 1023,4 hPa 0,0 l/m 0 min 0 min 0 W/m 9,7 km/h (2 Bft) 94,29 %
05.03.2021 02:58 2,8 C 2,2 C 1,7 C 93 % 1023,4 hPa 0,0 l/m 0 min 0 min 0 W/m 6,4 km/h (2 Bft) 98,31 %
05.03.2021 03:00 2,8 C 2,2 C 1,7 C 93 % 1023,4 hPa 0,0 l/m 0 min 0 min 0 W/m 6,4 km/h (2 Bft) 100,00 %
05.03.2021 03:02 2,8 C 2,2 C 1,7 C 93 % 1023,4 hPa 0,0 l/m 0 min 0 min 0 W/m 9,7 km/h (2 Bft) 97,83 %
05.03.2021 03:04 2,8 C 2,2 C 1,7 C 93 % 1023,4 hPa 0,0 l/m 0 min 0 min 0 W/m 6,4 km/h (2 Bft) 94,44 %
05.03.2021 03:06 2,8 C 2,2 C 1,7 C 93 % 1023,4 hPa 0,0 l/m 0 min 0 min 0 W/m 6,4 km/h (2 Bft) 100,00 %
05.03.2021 03:08 2,8 C 2,2 C 1,7 C 93 % 1023,4 hPa 0,0 l/m 0 min 0 min 0 W/m 22,5 km/h (4 Bft) 100,00 %
05.03.2021 03:10 2,8 C 2,2 C 1,7 C 94 % 1023,4 hPa 0,0 l/m 0 min 0 min 0 W/m 6,4 km/h (2 Bft) 100,00 %
05.03.2021 03:12 2,8 C 2,2 C 1,7 C 94 % 1023,4 hPa 0,0 l/m 0 min 0 min 0 W/m 12,9 km/h (3 Bft) 97,14 %
05.03.2021 03:14 2,8 C 2,2 C 1,7 C 94 % 1023,4 hPa 0,0 l/m 0 min 0 min 0 W/m 9,7 km/h (2 Bft) 97,87 %
05.03.2021 03:16 2,8 C 2,2 C 1,7 C 94 % 1023,4 hPa 0,0 l/m 0 min 0 min 0 W/m 6,4 km/h (2 Bft) 97,87 %
05.03.2021 03:18 2,8 C 2,2 C 1,7 C 94 % 1023,4 hPa 0,0 l/m 0 min 0 min 0 W/m 6,4 km/h (2 Bft) 100,00 %
05.03.2021 03:20 2,8 C 2,2 C 1,7 C 94 % 1023,4 hPa 0,0 l/m 0 min 0 min 0 W/m 12,9 km/h (3 Bft) 97,87 %
05.03.2021 03:22 2,8 C 2,2 C 1,7 C 94 % 1023,5 hPa 0,0 l/m 0 min 0 min 0 W/m 6,4 km/h (2 Bft) 97,87 %
05.03.2021 03:24 2,8 C 2,2 C 1,7 C 94 % 1023,5 hPa 0,0 l/m 0 min 0 min 0 W/m 9,7 km/h (2 Bft) 100,00 %
05.03.2021 03:26 2,8 C 2,2 C 1,7 C 94 % 1023,5 hPa 0,0 l/m 0 min 0 min 0 W/m 6,4 km/h (2 Bft) 100,00 %
05.03.2021 03:28 2,8 C 2,2 C 1,7 C 94 % 1023,5 hPa 0,0 l/m 0 min 0 min 0 W/m 6,4 km/h (2 Bft) 100,00 %
05.03.2021 03:30 2,8 C 2,2 C 1,7 C 94 % 1023,5 hPa 0,0 l/m 0 min 0 min 0 W/m 9,7 km/h (2 Bft) 98,28 %
05.03.2021 03:32 2,8 C 2,2 C 1,7 C 94 % 1023,5 hPa 0,0 l/m 0 min 0 min 0 W/m 6,4 km/h (2 Bft) 100,00 %
05.03.2021 03:34 2,8 C 2,2 C 1,7 C 94 % 1023,6 hPa 0,0 l/m 0 min 0 min 0 W/m 12,9 km/h (3 Bft) 100,00 %
05.03.2021 03:36 2,9 C 2,2 C 1,7 C 94 % 1023,5 hPa 0,0 l/m 0 min 0 min 0 W/m 19,3 km/h (3 Bft) 100,00 %
05.03.2021 03:38 2,9 C 2,2 C 1,7 C 94 % 1023,6 hPa 0,0 l/m 0 min 0 min 0 W/m 19,3 km/h (3 Bft) 95,65 %
05.03.2021 03:40 2,9 C 2,2 C 1,7 C 94 % 1023,6 hPa 0,0 l/m 0 min 0 min 0 W/m 19,3 km/h (3 Bft) 100,00 %
05.03.2021 03:42 2,9 C 2,2 C 1,7 C 94 % 1023,6 hPa 0,0 l/m 0 min 0 min 0 W/m 3,2 km/h (1 Bft) 100,00 %
05.03.2021 03:44 2,9 C 2,2 C 1,7 C 95 % 1023,6 hPa 0,0 l/m 0 min 0 min 0 W/m 3,2 km/h (1 Bft) 100,00 %
05.03.2021 03:46 2,9 C 2,2 C 1,7 C 95 % 1023,7 hPa 0,0 l/m 0 min 0 min 0 W/m 6,4 km/h (2 Bft) 98,31 %
05.03.2021 03:48 2,9 C 2,2 C 1,7 C 95 % 1023,6 hPa 0,0 l/m 0 min 0 min 0 W/m 9,7 km/h (2 Bft) 100,00 %
05.03.2021 03:50 2,9 C 2,2 C 1,7 C 95 % 1023,6 hPa 0,0 l/m 0 min 0 min 0 W/m 9,7 km/h (2 Bft) 100,00 %
05.03.2021 03:52 2,9 C 2,2 C 1,7 C 95 % 1023,7 hPa 0,0 l/m 0 min 0 min 0 W/m 22,5 km/h (4 Bft) 97,83 %
05.03.2021 03:54 2,9 C 2,2 C 1,7 C 95 % 1023,7 hPa 0,0 l/m 0 min 0 min 0 W/m 9,7 km/h (2 Bft) 98,31 %
05.03.2021 03:56 2,9 C 2,2 C 1,7 C 95 % 1023,7 hPa 0,0 l/m 0 min 0 min 0 W/m 12,9 km/h (3 Bft) 97,87 %
05.03.2021 03:58 2,9 C 2,2 C 1,7 C 95 % 1023,7 hPa 0,0 l/m 0 min 0 min 0 W/m 6,4 km/h (2 Bft) 97,14 %
05.03.2021 04:00 2,9 C 2,2 C 1,7 C 95 % 1023,7 hPa 0,0 l/m 0 min 0 min 0 W/m 3,2 km/h (1 Bft) 96,55 %
05.03.2021 04:02 2,9 C 2,2 C 1,7 C 95 % 1023,7 hPa 0,0 l/m 0 min 0 min 0 W/m 16,1 km/h (3 Bft) 96,43 %
05.03.2021 04:04 2,9 C 2,2 C 1,7 C 95 % 1023,7 hPa 0,0 l/m 0 min 0 min 0 W/m 12,9 km/h (3 Bft) 98,28 %
05.03.2021 04:06 2,9 C 2,2 C 1,7 C 95 % 1023,8 hPa 0,0 l/m 0 min 0 min 0 W/m 16,1 km/h (3 Bft) 95,74 %
05.03.2021 04:08 2,9 C 2,2 C 1,7 C 95 % 1023,8 hPa 0,0 l/m 0 min 0 min 0 W/m 9,7 km/h (2 Bft) 97,87 %
05.03.2021 04:10 2,9 C 2,2 C 1,7 C 95 % 1023,8 hPa 0,0 l/m 0 min 0 min 0 W/m 3,2 km/h (1 Bft) 97,87 %
05.03.2021 04:12 2,9 C 2,2 C 1,7 C 95 % 1023,8 hPa 0,0 l/m 0 min 0 min 0 W/m 22,5 km/h (4 Bft) 97,83 %
05.03.2021 04:14 2,9 C 2,2 C 1,7 C 95 % 1023,8 hPa 0,0 l/m 0 min 0 min 0 W/m 12,9 km/h (3 Bft) 95,74 %
05.03.2021 04:16 2,9 C 2,2 C 1,7 C 95 % 1023,9 hPa 0,0 l/m 0 min 0 min 0 W/m 16,1 km/h (3 Bft) 97,87 %
05.03.2021 04:18 2,9 C 2,2 C 1,7 C 95 % 1023,9 hPa 0,0 l/m 0 min 0 min 0 W/m 9,7 km/h (2 Bft) 97,87 %
05.03.2021 04:20 2,9 C 2,2 C 1,7 C 95 % 1023,9 hPa 0,0 l/m 0 min 0 min 0 W/m 19,3 km/h (3 Bft) 97,87 %
05.03.2021 04:22 2,8 C 2,2 C 1,7 C 95 % 1024,0 hPa 0,0 l/m 0 min 0 min 0 W/m 9,7 km/h (2 Bft) 97,87 %
05.03.2021 04:24 2,8 C 2,2 C 1,7 C 95 % 1024,0 hPa 0,0 l/m 0 min 0 min 0 W/m 9,7 km/h (2 Bft) 97,83 %
05.03.2021 04:26 2,8 C 2,2 C 1,7 C 95 % 1024,0 hPa 0,0 l/m 0 min 0 min 0 W/m 12,9 km/h (3 Bft) 97,87 %
05.03.2021 04:28 2,8 C 2,2 C 1,7 C 95 % 1024,0 hPa 0,0 l/m 0 min 0 min 0 W/m 22,5 km/h (4 Bft) 97,87 %
05.03.2021 04:30 2,7 C 2,2 C 1,7 C 95 % 1024,1 hPa 0,0 l/m 0 min 0 min 0 W/m 16,1 km/h (3 Bft) 97,87 %
05.03.2021 04:32 2,6 C 2,2 C 1,7 C 95 % 1024,0 hPa 0,0 l/m 0 min 0 min 0 W/m 6,4 km/h (2 Bft) 95,74 %
05.03.2021 04:34 2,6 C 2,2 C 1,7 C 95 % 1024,0 hPa 0,0 l/m 0 min 0 min 0 W/m 6,4 km/h (2 Bft) 97,87 %
05.03.2021 04:36 2,6 C 2,2 C 1,7 C 94 % 1024,1 hPa 0,0 l/m 0 min 0 min 0 W/m 16,1 km/h (3 Bft) 100,00 %
05.03.2021 04:38 2,6 C 2,2 C 1,7 C 94 % 1024,1 hPa 0,0 l/m 0 min 0 min 0 W/m 6,4 km/h (2 Bft) 100,00 %
05.03.2021 04:40 2,6 C 2,2 C 1,7 C 94 % 1024,1 hPa 0,0 l/m 0 min 0 min 0 W/m 3,2 km/h (1 Bft) 100,00 %
05.03.2021 04:42 2,6 C 2,2 C 1,7 C 94 % 1024,1 hPa 0,0 l/m 0 min 0 min 0 W/m 12,9 km/h (3 Bft) 100,00 %
05.03.2021 04:44 2,6 C 2,2 C 1,7 C 94 % 1024,1 hPa 0,0 l/m 0 min 0 min 0 W/m 9,7 km/h (2 Bft) 100,00 %
05.03.2021 04:46 2,6 C 2,2 C 1,7 C 94 % 1024,1 hPa 0,0 l/m 0 min 0 min 0 W/m 16,1 km/h (3 Bft) 100,00 %
05.03.2021 04:48 2,6 C 2,2 C 1,7 C 94 % 1024,1 hPa 0,0 l/m 0 min 0 min 0 W/m 12,9 km/h (3 Bft) 100,00 %
05.03.2021 04:50 2,6 C 2,2 C 1,7 C 94 % 1024,2 hPa 0,0 l/m 0 min 0 min 0 W/m 12,9 km/h (3 Bft) 100,00 %
05.03.2021 04:52 2,6 C 2,2 C 1,7 C 94 % 1024,2 hPa 0,0 l/m 0 min 0 min 0 W/m 9,7 km/h (2 Bft) 100,00 %
05.03.2021 04:54 2,5 C 2,2 C 1,1 C 94 % 1024,2 hPa 0,0 l/m 0 min 0 min 0 W/m 16,1 km/h (3 Bft) 97,87 %
05.03.2021 04:56 2,5 C 2,2 C 1,1 C 94 % 1024,2 hPa 0,0 l/m 0 min 0 min 0 W/m 9,7 km/h (2 Bft) 97,87 %
05.03.2021 04:58 2,5 C 2,2 C 1,1 C 93 % 1024,2 hPa 0,0 l/m 0 min 0 min 0 W/m 12,9 km/h (3 Bft) 97,87 %
05.03.2021 05:00 2,5 C 2,2 C 1,1 C 93 % 1024,3 hPa 0,0 l/m 0 min 0 min 0 W/m 16,1 km/h (3 Bft) 100,00 %
05.03.2021 05:02 2,5 C 2,2 C 1,1 C 93 % 1024,3 hPa 0,0 l/m 0 min 0 min 0 W/m 9,7 km/h (2 Bft) 100,00 %
05.03.2021 05:04 2,5 C 2,2 C 1,1 C 93 % 1024,3 hPa 0,0 l/m 0 min 0 min 0 W/m 6,4 km/h (2 Bft) 100,00 %
05.03.2021 05:06 2,4 C 2,2 C 1,1 C 93 % 1024,4 hPa 0,0 l/m 0 min 0 min 0 W/m 6,4 km/h (2 Bft) 95,74 %
05.03.2021 05:08 2,4 C 2,2 C 1,1 C 93 % 1024,4 hPa 0,0 l/m 0 min 0 min 0 W/m 16,1 km/h (3 Bft) 98,31 %
05.03.2021 05:10 2,4 C 2,2 C 1,1 C 93 % 1024,4 hPa 0,0 l/m 0 min 0 min 0 W/m 32,2 km/h (5 Bft) 97,14 %
05.03.2021 05:12 2,4 C 2,2 C 1,1 C 93 % 1024,4 hPa 0,0 l/m 0 min 0 min 0 W/m 9,7 km/h (2 Bft) 98,28 %
05.03.2021 05:14 2,4 C 2,2 C 1,1 C 93 % 1024,5 hPa 0,0 l/m 0 min 0 min 0 W/m 16,1 km/h (3 Bft) 97,14 %
05.03.2021 05:16 2,4 C 2,2 C 1,1 C 93 % 1024,5 hPa 0,0 l/m 0 min 0 min 0 W/m 16,1 km/h (3 Bft) 94,92 %
05.03.2021 05:18 2,4 C 2,2 C 1,1 C 92 % 1024,5 hPa 0,0 l/m 0 min 0 min 0 W/m 12,9 km/h (3 Bft) 95,74 %
05.03.2021 05:20 2,4 C 2,2 C 1,1 C 92 % 1024,7 hPa 0,0 l/m 0 min 0 min 0 W/m 19,3 km/h (3 Bft) 100,00 %
05.03.2021 05:22 2,4 C 2,2 C 1,1 C 92 % 1024,7 hPa 0,0 l/m 0 min 0 min 0 W/m 16,1 km/h (3 Bft) 96,55 %
05.03.2021 05:24 2,4 C 2,2 C 1,1 C 92 % 1024,7 hPa 0,0 l/m 0 min 0 min 0 W/m 12,9 km/h (3 Bft) 97,22 %
05.03.2021 05:26 2,4 C 2,2 C 1,1 C 92 % 1024,7 hPa 0,0 l/m 0 min 0 min 0 W/m 16,1 km/h (3 Bft) 98,28 %
05.03.2021 05:28 2,4 C 1,7 C 1,1 C 92 % 1024,7 hPa 0,0 l/m 0 min 0 min 0 W/m 16,1 km/h (3 Bft) 95,74 %
05.03.2021 05:30 2,3 C 1,7 C 1,1 C 91 % 1024,8 hPa 0,0 l/m 0 min 0 min 0 W/m 16,1 km/h (3 Bft) 97,14 %
05.03.2021 05:32 2,3 C 1,7 C 1,1 C 91 % 1024,9 hPa 0,0 l/m 0 min 0 min 0 W/m 19,3 km/h (3 Bft) 98,00 %
05.03.2021 05:34 2,2 C 1,7 C 1,1 C 91 % 1024,9 hPa 0,0 l/m 0 min 0 min 0 W/m 19,3 km/h (3 Bft) 97,87 %
05.03.2021 05:36 2,1 C 1,7 C 0,6 C 91 % 1024,9 hPa 0,0 l/m 0 min 0 min 0 W/m 22,5 km/h (4 Bft) 97,87 %
05.03.2021 05:38 2,0 C 1,7 C 0,6 C 91 % 1024,8 hPa 0,0 l/m 0 min 0 min 0 W/m 19,3 km/h (3 Bft) 95,74 %
05.03.2021 05:40 2,0 C 1,1 C 0,6 C 90 % 1024,9 hPa 0,0 l/m 0 min 0 min 0 W/m 16,1 km/h (3 Bft) 97,87 %
05.03.2021 05:42 1,9 C 1,1 C 0,6 C 90 % 1024,9 hPa 0,0 l/m 0 min 0 min 0 W/m 16,1 km/h (3 Bft) 97,83 %
05.03.2021 05:44 1,9 C 1,1 C 0,6 C 90 % 1024,9 hPa 0,0 l/m 0 min 0 min 0 W/m 12,9 km/h (3 Bft) 97,87 %
05.03.2021 05:46 1,8 C 1,1 C 0,6 C 90 % 1024,9 hPa 0,0 l/m 0 min 0 min 0 W/m 16,1 km/h (3 Bft) 97,87 %
05.03.2021 05:48 1,8 C 1,1 C 0,0 C 90 % 1024,9 hPa 0,0 l/m 0 min 0 min 0 W/m 12,9 km/h (3 Bft) 97,87 %
05.03.2021 05:50 1,6 C 0,6 C 0,0 C 89 % 1024,9 hPa 0,0 l/m 0 min 0 min 0 W/m 16,1 km/h (3 Bft) 97,87 %
05.03.2021 05:52 1,6 C 0,6 C 0,0 C 89 % 1025,0 hPa 0,0 l/m 0 min 0 min 0 W/m 12,9 km/h (3 Bft) 95,74 %
05.03.2021 05:54 1,5 C 0,6 C 0,0 C 89 % 1025,0 hPa 0,0 l/m 0 min 0 min 0 W/m 19,3 km/h (3 Bft) 97,83 %
05.03.2021 05:56 1,4 C 0,6 C 0,0 C 89 % 1025,1 hPa 0,0 l/m 0 min 0 min 0 W/m 19,3 km/h (3 Bft) 93,62 %
05.03.2021 05:58 1,4 C 0,6 C 0,0 C 89 % 1025,2 hPa 0,0 l/m 0 min 0 min 0 W/m 12,9 km/h (3 Bft) 97,87 %
05.03.2021 06:00 1,3 C 0,6 C 0,0 C 89 % 1025,2 hPa 0,0 l/m 0 min 0 min 0 W/m 12,9 km/h (3 Bft) 100,00 %
05.03.2021 06:02 1,3 C 0,0 C 0,0 C 89 % 1025,2 hPa 0,0 l/m 0 min 0 min 0 W/m 12,9 km/h (3 Bft) 95,74 %
05.03.2021 06:04 1,2 C 0,0 C -0,5 C 89 % 1025,2 hPa 0,0 l/m 0 min 0 min 0 W/m 6,4 km/h (2 Bft) 74,47 %
05.03.2021 06:08 1,0 C 0,0 C -0,5 C 89 % 1025,2 hPa 0,0 l/m 0 min 0 min 0 W/m 12,9 km/h (3 Bft) 100,00 %
05.03.2021 06:10 1,0 C 0,0 C -0,5 C 89 % 1025,3 hPa 0,0 l/m 0 min 0 min 0 W/m 12,9 km/h (3 Bft) 100,00 %
05.03.2021 06:12 0,9 C 0,0 C -0,5 C 89 % 1025,3 hPa 0,0 l/m 0 min 0 min 0 W/m 9,7 km/h (2 Bft) 100,00 %
05.03.2021 06:14 0,9 C 0,0 C -0,5 C 89 % 1025,4 hPa 0,0 l/m 0 min 0 min 0 W/m 6,4 km/h (2 Bft) 93,88 %
05.03.2021 06:16 0,9 C 0,0 C -0,5 C 89 % 1025,4 hPa 0,0 l/m 0 min 0 min 0 W/m 12,9 km/h (3 Bft) 95,74 %
05.03.2021 06:18 0,8 C 0,0 C -0,5 C 89 % 1025,5 hPa 0,0 l/m 0 min 0 min 0 W/m 6,4 km/h (2 Bft) 97,83 %
05.03.2021 06:20 0,8 C 0,0 C -0,5 C 90 % 1025,5 hPa 0,0 l/m 0 min 0 min 0 W/m 16,1 km/h (3 Bft) 97,87 %
05.03.2021 06:22 0,8 C 0,0 C -0,5 C 90 % 1025,6 hPa 0,0 l/m 0 min 0 min 0 W/m 19,3 km/h (3 Bft) 97,87 %
05.03.2021 06:24 0,6 C 0,0 C -0,5 C 90 % 1025,5 hPa 0,0 l/m 0 min 0 min 0 W/m 19,3 km/h (3 Bft) 97,87 %
05.03.2021 06:26 0,6 C 0,0 C -0,5 C 89 % 1025,5 hPa 0,0 l/m 0 min 0 min 0 W/m 19,3 km/h (3 Bft) 97,87 %
05.03.2021 06:28 0,5 C 0,0 C -0,5 C 90 % 1025,5 hPa 0,0 l/m 0 min 0 min 0 W/m 16,1 km/h (3 Bft) 97,83 %
05.03.2021 06:30 0,5 C 0,0 C -0,5 C 89 % 1025,5 hPa 0,0 l/m 0 min 0 min 0 W/m 9,7 km/h (2 Bft) 95,74 %
05.03.2021 06:32 0,5 C -0,6 C -1,1 C 89 % 1025,6 hPa 0,0 l/m 0 min 0 min 0 W/m 9,7 km/h (2 Bft) 97,87 %
05.03.2021 06:34 0,5 C -0,6 C -1,1 C 89 % 1025,6 hPa 0,0 l/m 0 min 0 min 0 W/m 12,9 km/h (3 Bft) 96,30 %
05.03.2021 06:36 0,5 C -0,6 C -1,1 C 89 % 1025,7 hPa 0,0 l/m 0 min 0 min 0 W/m 3,2 km/h (1 Bft) 97,87 %
05.03.2021 06:38 0,4 C -0,6 C -1,1 C 90 % 1025,7 hPa 0,0 l/m 0 min 0 min 0 W/m 12,9 km/h (3 Bft) 97,87 %
05.03.2021 06:40 0,4 C -0,6 C -1,1 C 89 % 1025,7 hPa 0,0 l/m 0 min 0 min 0 W/m 9,7 km/h (2 Bft) 97,87 %
05.03.2021 06:42 0,3 C -0,6 C -1,1 C 89 % 1025,7 hPa 0,0 l/m 0 min 0 min 0 W/m 6,4 km/h (2 Bft) 95,65 %
05.03.2021 06:44 0,3 C -0,6 C -1,1 C 89 % 1025,7 hPa 0,0 l/m 0 min 0 min 0 W/m 6,4 km/h (2 Bft) 100,00 %
05.03.2021 06:46 0,3 C -0,6 C -1,1 C 90 % 1025,7 hPa 0,0 l/m 0 min 0 min 0 W/m 9,7 km/h (2 Bft) 95,74 %
05.03.2021 06:48 0,2 C -0,6 C -1,1 C 90 % 1025,7 hPa 0,0 l/m 0 min 0 min 0 W/m 9,7 km/h (2 Bft) 97,87 %
05.03.2021 06:50 0,1 C -0,6 C -1,1 C 90 % 1025,7 hPa 0,0 l/m 0 min 0 min 0 W/m 6,4 km/h (2 Bft) 97,87 %
05.03.2021 06:52 0,1 C -0,6 C -1,1 C 90 % 1025,7 hPa 0,0 l/m 0 min 0 min 0 W/m 9,7 km/h (2 Bft) 97,87 %
05.03.2021 06:54 0,1 C -0,6 C -1,1 C 90 % 1025,8 hPa 0,0 l/m 0 min 0 min 0 W/m 9,7 km/h (2 Bft) 97,87 %
05.03.2021 06:56 0,1 C -0,6 C -1,1 C 90 % 1025,8 hPa 0,0 l/m 0 min 0 min 0 W/m 3,2 km/h (1 Bft) 97,83 %
05.03.2021 06:58 0,0 C -1,1 C -1,1 C 90 % 1025,8 hPa 0,0 l/m 0 min 0 min 0 W/m 19,3 km/h (3 Bft) 100,00 %
05.03.2021 07:00 0,0 C -1,1 C -1,1 C 90 % 1025,9 hPa 0,0 l/m 0 min 0 min 0 W/m 6,4 km/h (2 Bft) 97,87 %
05.03.2021 07:02 0,0 C -1,1 C -1,1 C 90 % 1025,8 hPa 0,0 l/m 0 min 0 min 0 W/m 6,4 km/h (2 Bft) 100,00 %
05.03.2021 07:04 0,0 C -1,1 C -1,1 C 90 % 1025,9 hPa 0,0 l/m 0 min 0 min 0 W/m 9,7 km/h (2 Bft) 100,00 %
05.03.2021 07:06 -0,1 C -1,1 C -1,1 C 90 % 1025,9 hPa 0,0 l/m 0 min 0 min 0 W/m 9,7 km/h (2 Bft) 100,00 %
05.03.2021 07:08 -0,1 C -1,1 C -1,1 C 90 % 1025,9 hPa 0,0 l/m 0 min 0 min 0 W/m 16,1 km/h (3 Bft) 100,00 %
05.03.2021 07:10 -0,1 C -1,1 C -1,1 C 90 % 1026,0 hPa 0,0 l/m 0 min 0 min 3 W/m 9,7 km/h (2 Bft) 100,00 %
05.03.2021 07:12 -0,1 C -1,1 C -1,6 C 90 % 1026,0 hPa 0,0 l/m 0 min 0 min 5 W/m 9,7 km/h (2 Bft) 100,00 %
05.03.2021 07:14 -0,1 C -1,1 C -1,6 C 90 % 1026,0 hPa 0,0 l/m 0 min 0 min 5 W/m 9,7 km/h (2 Bft) 100,00 %
05.03.2021 07:16 -0,2 C -1,1 C -1,6 C 90 % 1026,0 hPa 0,0 l/m 0 min 0 min 6 W/m 12,9 km/h (3 Bft) 97,87 %
05.03.2021 07:18 -0,2 C -1,1 C -1,1 C 90 % 1026,1 hPa 0,0 l/m 0 min 0 min 7 W/m 16,1 km/h (3 Bft) 100,00 %
05.03.2021 07:20 -0,2 C -1,1 C -1,1 C 90 % 1026,2 hPa 0,0 l/m 0 min 0 min 9 W/m 12,9 km/h (3 Bft) 100,00 %
05.03.2021 07:22 -0,2 C -1,1 C -1,1 C 90 % 1026,3 hPa 0,0 l/m 0 min 0 min 9 W/m 9,7 km/h (2 Bft) 100,00 %
05.03.2021 07:24 -0,2 C -1,1 C -1,1 C 90 % 1026,2 hPa 0,0 l/m 0 min 0 min 11 W/m 9,7 km/h (2 Bft) 100,00 %
05.03.2021 07:26 -0,2 C -1,1 C -1,1 C 90 % 1026,2 hPa 0,0 l/m 0 min 0 min 12 W/m 9,7 km/h (2 Bft) 100,00 %
05.03.2021 07:28 -0,2 C -0,6 C -1,1 C 90 % 1026,3 hPa 0,0 l/m 0 min 0 min 13 W/m 9,7 km/h (2 Bft) 97,87 %
05.03.2021 07:30 -0,2 C -0,6 C -1,1 C 90 % 1026,3 hPa 0,0 l/m 0 min 0 min 15 W/m 9,7 km/h (2 Bft) 100,00 %
05.03.2021 07:32 -0,2 C -0,6 C -1,1 C 90 % 1026,4 hPa 0,0 l/m 0 min 0 min 16 W/m 12,9 km/h (3 Bft) 100,00 %
05.03.2021 07:34 -0,2 C -0,6 C -1,6 C 90 % 1026,4 hPa 0,0 l/m 0 min 0 min 16 W/m 12,9 km/h (3 Bft) 100,00 %
05.03.2021 07:36 -0,2 C -0,6 C -1,1 C 90 % 1026,4 hPa 0,0 l/m 0 min 0 min 17 W/m 6,4 km/h (2 Bft) 97,87 %
05.03.2021 07:38 -0,3 C -1,1 C -1,1 C 90 % 1026,5 hPa 0,0 l/m 0 min 0 min 18 W/m 6,4 km/h (2 Bft) 100,00 %
05.03.2021 07:40 -0,3 C -1,1 C -1,1 C 90 % 1026,5 hPa 0,0 l/m 0 min 0 min 18 W/m 3,2 km/h (1 Bft) 100,00 %
05.03.2021 07:42 -0,3 C -1,1 C -1,6 C 90 % 1026,5 hPa 0,0 l/m 0 min 0 min 19 W/m 3,2 km/h (1 Bft) 100,00 %
05.03.2021 07:44 -0,3 C -1,1 C -1,6 C 90 % 1026,6 hPa 0,0 l/m 0 min 0 min 19 W/m 9,7 km/h (2 Bft) 100,00 %
05.03.2021 07:46 -0,3 C -1,1 C -1,6 C 90 % 1026,7 hPa 0,0 l/m 0 min 0 min 20 W/m 6,4 km/h (2 Bft) 95,74 %
05.03.2021 07:48 -0,3 C -1,1 C -1,6 C 90 % 1026,7 hPa 0,0 l/m 0 min 0 min 21 W/m 12,9 km/h (3 Bft) 100,00 %
05.03.2021 07:50 -0,4 C -1,1 C -1,6 C 90 % 1026,8 hPa 0,0 l/m 0 min 0 min 21 W/m 9,7 km/h (2 Bft) 97,87 %
05.03.2021 07:52 -0,4 C -1,1 C -1,6 C 90 % 1026,8 hPa 0,0 l/m 0 min 0 min 23 W/m 6,4 km/h (2 Bft) 100,00 %
05.03.2021 07:54 -0,4 C -1,1 C -1,6 C 90 % 1026,9 hPa 0,0 l/m 0 min 0 min 23 W/m 9,7 km/h (2 Bft) 100,00 %
05.03.2021 07:56 -0,4 C -0,6 C -1,6 C 90 % 1026,9 hPa 0,0 l/m 0 min 0 min 25 W/m 12,9 km/h (3 Bft) 97,87 %
05.03.2021 07:58 -0,4 C -0,6 C -1,6 C 90 % 1026,9 hPa 0,0 l/m 0 min 0 min 25 W/m 6,4 km/h (2 Bft) 93,62 %
05.03.2021 08:00 -0,4 C -0,6 C -1,6 C 90 % 1026,9 hPa 0,0 l/m 0 min 0 min 25 W/m 6,4 km/h (2 Bft) 95,74 %
05.03.2021 08:02 -0,4 C -0,6 C -1,6 C 90 % 1026,9 hPa 0,0 l/m 0 min 0 min 25 W/m 6,4 km/h (2 Bft) 100,00 %
05.03.2021 08:04 -0,4 C -0,6 C -1,6 C 90 % 1027,0 hPa 0,0 l/m 0 min 0 min 25 W/m 9,7 km/h (2 Bft) 100,00 %
05.03.2021 08:06 -0,4 C -0,6 C -1,6 C 90 % 1027,0 hPa 0,0 l/m 0 min 0 min 25 W/m 9,7 km/h (2 Bft) 100,00 %
05.03.2021 08:08 -0,4 C -0,6 C -1,6 C 90 % 1027,0 hPa 0,0 l/m 0 min 0 min 26 W/m 9,7 km/h (2 Bft) 100,00 %
05.03.2021 08:10 -0,4 C -0,6 C -1,6 C 90 % 1027,1 hPa 0,0 l/m 0 min 0 min 26 W/m 12,9 km/h (3 Bft) 100,00 %
05.03.2021 08:12 -0,3 C -0,6 C -1,6 C 90 % 1027,1 hPa 0,0 l/m 0 min 0 min 26 W/m 12,9 km/h (3 Bft) 100,00 %
05.03.2021 08:14 -0,3 C -0,6 C -1,6 C 90 % 1027,2 hPa 0,0 l/m 0 min 0 min 27 W/m 9,7 km/h (2 Bft) 100,00 %
05.03.2021 08:16 -0,3 C -0,6 C -1,6 C 90 % 1027,2 hPa 0,0 l/m 0 min 0 min 28 W/m 6,4 km/h (2 Bft) 95,74 %
05.03.2021 08:18 -0,3 C -0,6 C -1,6 C 90 % 1027,2 hPa 0,0 l/m 0 min 0 min 28 W/m 16,1 km/h (3 Bft) 97,83 %
05.03.2021 08:20 -0,3 C -0,6 C -1,6 C 90 % 1027,2 hPa 0,0 l/m 0 min 0 min 28 W/m 9,7 km/h (2 Bft) 95,74 %
05.03.2021 08:22 -0,3 C -0,6 C -1,1 C 89 % 1027,3 hPa 0,0 l/m 0 min 0 min 28 W/m 19,3 km/h (3 Bft) 93,62 %
05.03.2021 08:24 -0,3 C -0,6 C -1,1 C 89 % 1027,3 hPa 0,0 l/m 0 min 0 min 30 W/m 9,7 km/h (2 Bft) 95,74 %
05.03.2021 08:26 -0,2 C -0,6 C -1,1 C 89 % 1027,4 hPa 0,0 l/m 0 min 0 min 30 W/m 16,1 km/h (3 Bft) 95,74 %
05.03.2021 08:28 -0,2 C -0,6 C -1,1 C 89 % 1027,4 hPa 0,0 l/m 0 min 0 min 30 W/m 12,9 km/h (3 Bft) 95,74 %
05.03.2021 08:30 -0,2 C -0,6 C -1,1 C 89 % 1027,4 hPa 0,0 l/m 0 min 0 min 32 W/m 12,9 km/h (3 Bft) 95,65 %
05.03.2021 08:32 -0,2 C -0,6 C -1,1 C 89 % 1027,5 hPa 0,0 l/m 0 min 0 min 32 W/m 6,4 km/h (2 Bft) 91,49 %
05.03.2021 08:34 -0,1 C -0,6 C -1,1 C 89 % 1027,5 hPa 0,0 l/m 0 min 0 min 32 W/m 12,9 km/h (3 Bft) 91,49 %
05.03.2021 08:36 -0,1 C -0,6 C -1,1 C 89 % 1027,6 hPa 0,0 l/m 0 min 0 min 32 W/m 9,7 km/h (2 Bft) 93,62 %
05.03.2021 08:38 -0,1 C -0,6 C -1,1 C 89 % 1027,6 hPa 0,0 l/m 0 min 0 min 32 W/m 16,1 km/h (3 Bft) 95,74 %
05.03.2021 08:40 -0,1 C 0,0 C -1,1 C 89 % 1027,6 hPa 0,0 l/m 0 min 0 min 33 W/m 12,9 km/h (3 Bft) 93,62 %
05.03.2021 08:42 -0,1 C 0,0 C -1,1 C 89 % 1027,6 hPa 0,0 l/m 0 min 0 min 33 W/m 19,3 km/h (3 Bft) 93,48 %
05.03.2021 08:44 0,0 C 0,0 C -1,1 C 89 % 1027,6 hPa 0,0 l/m 0 min 0 min 33 W/m 12,9 km/h (3 Bft) 93,62 %
05.03.2021 08:46 0,0 C 0,0 C -1,1 C 89 % 1027,7 hPa 0,0 l/m 0 min 0 min 90 W/m 9,7 km/h (2 Bft) 93,62 %
05.03.2021 08:48 0,0 C 0,0 C -1,1 C 89 % 1027,6 hPa 0,0 l/m 2 min 0 min 215 W/m 12,9 km/h (3 Bft) 95,74 %
05.03.2021 08:50 0,0 C 0,0 C -1,1 C 89 % 1027,7 hPa 0,0 l/m 2 min 0 min 233 W/m 12,9 km/h (3 Bft) 87,23 %
05.03.2021 08:52 0,1 C 0,6 C -1,1 C 88 % 1027,7 hPa 0,0 l/m 2 min 0 min 213 W/m 16,1 km/h (3 Bft) 93,48 %
05.03.2021 08:54 0,2 C 1,7 C -1,1 C 88 % 1027,7 hPa 0,0 l/m 2 min 0 min 237 W/m 16,1 km/h (3 Bft) 93,62 %
05.03.2021 08:56 0,3 C 3,3 C -1,1 C 88 % 1027,9 hPa 0,0 l/m 2 min 0 min 251 W/m 16,1 km/h (3 Bft) 91,49 %
05.03.2021 08:58 0,4 C 3,9 C -1,1 C 88 % 1027,9 hPa 0,0 l/m 2 min 0 min 256 W/m 16,1 km/h (3 Bft) 91,49 %
05.03.2021 09:00 0,5 C 4,4 C -0,5 C 88 % 1027,9 hPa 0,0 l/m 2 min 0 min 263 W/m 16,1 km/h (3 Bft) 93,62 %
05.03.2021 09:02 0,5 C 5,0 C -0,5 C 88 % 1027,9 hPa 0,0 l/m 2 min 0 min 266 W/m 16,1 km/h (3 Bft) 93,62 %
05.03.2021 09:04 0,6 C 5,0 C -0,5 C 88 % 1028,0 hPa 0,0 l/m 2 min 0 min 273 W/m 9,7 km/h (2 Bft) 93,48 %
05.03.2021 09:06 0,8 C 5,0 C -0,5 C 87 % 1028,0 hPa 0,0 l/m 2 min 0 min 242 W/m 12,9 km/h (3 Bft) 93,62 %
05.03.2021 09:08 0,9 C 5,0 C -0,5 C 87 % 1028,0 hPa 0,0 l/m 2 min 0 min 243 W/m 12,9 km/h (3 Bft) 47,37 %
05.03.2021 09:10 1,0 C 5,0 C 0,0 C 87 % 1028,0 hPa 0,0 l/m 2 min 0 min 289 W/m 16,1 km/h (3 Bft) 95,65 %
05.03.2021 09:12 1,1 C 5,0 C 0,0 C 86 % 1028,1 hPa 0,0 l/m 2 min 0 min 293 W/m 19,3 km/h (3 Bft) 95,74 %
05.03.2021 09:14 1,2 C 4,4 C 0,0 C 86 % 1028,1 hPa 0,0 l/m 2 min 0 min 301 W/m 9,7 km/h (2 Bft) 95,74 %
05.03.2021 09:16 1,3 C 4,4 C 0,0 C 86 % 1028,1 hPa 0,0 l/m 2 min 0 min 306 W/m 16,1 km/h (3 Bft) 93,48 %
05.03.2021 09:18 1,3 C 4,4 C 0,0 C 85 % 1028,1 hPa 0,0 l/m 2 min 0 min 308 W/m 16,1 km/h (3 Bft) 95,74 %
05.03.2021 09:20 1,4 C 4,4 C 0,0 C 85 % 1028,1 hPa 0,0 l/m 2 min 0 min 274 W/m 12,9 km/h (3 Bft) 93,62 %
05.03.2021 09:22 1,4 C 5,0 C 0,0 C 85 % 1028,1 hPa 0,0 l/m 2 min 0 min 290 W/m 16,1 km/h (3 Bft) 91,49 %
05.03.2021 09:24 1,5 C 4,4 C 0,0 C 84 % 1028,1 hPa 0,0 l/m 2 min 0 min 239 W/m 12,9 km/h (3 Bft) 95,74 %
05.03.2021 09:26 1,5 C 4,4 C 0,0 C 84 % 1028,1 hPa 0,0 l/m 2 min 0 min 224 W/m 12,9 km/h (3 Bft) 95,74 %
05.03.2021 09:28 1,5 C 3,9 C 0,0 C 84 % 1028,1 hPa 0,0 l/m 2 min 0 min 262 W/m 12,9 km/h (3 Bft) 95,65 %
05.03.2021 09:30 1,6 C 3,9 C 0,0 C 84 % 1028,2 hPa 0,0 l/m 2 min 0 min 301 W/m 16,1 km/h (3 Bft) 95,74 %
05.03.2021 09:32 1,7 C 4,4 C 0,0 C 84 % 1028,2 hPa 0,0 l/m 2 min 0 min 316 W/m 12,9 km/h (3 Bft) 95,74 %
05.03.2021 09:34 1,8 C 4,4 C 0,0 C 84 % 1028,3 hPa 0,0 l/m 2 min 0 min 319 W/m 9,7 km/h (2 Bft) 95,74 %
05.03.2021 09:36 1,8 C 4,4 C 0,0 C 83 % 1028,2 hPa 0,0 l/m 2 min 0 min 258 W/m 6,4 km/h (2 Bft) 93,62 %
05.03.2021 09:38 1,9 C 5,0 C 0,6 C 83 % 1028,2 hPa 0,0 l/m 2 min 0 min 318 W/m 3,2 km/h (1 Bft) 95,74 %
05.03.2021 09:40 1,9 C 4,4 C 0,6 C 83 % 1028,3 hPa 0,0 l/m 2 min 0 min 250 W/m 19,3 km/h (3 Bft) 97,83 %
05.03.2021 09:42 2,0 C 5,0 C 0,6 C 83 % 1028,2 hPa 0,0 l/m 0 min 0 min 131 W/m 6,4 km/h (2 Bft) 97,87 %
05.03.2021 09:44 2,1 C 5,6 C 0,6 C 83 % 1028,3 hPa 0,0 l/m 0 min 0 min 143 W/m 12,9 km/h (3 Bft) 97,87 %
05.03.2021 09:46 2,2 C 6,1 C 0,6 C 83 % 1028,3 hPa 0,0 l/m 0 min 0 min 121 W/m 12,9 km/h (3 Bft) 97,87 %
05.03.2021 09:48 2,3 C 6,7 C 0,6 C 82 % 1028,3 hPa 0,0 l/m 0 min 0 min 121 W/m 9,7 km/h (2 Bft) 95,74 %
05.03.2021 09:50 2,4 C 6,1 C 0,6 C 82 % 1028,3 hPa 0,0 l/m 0 min 0 min 121 W/m 12,9 km/h (3 Bft) 97,83 %
05.03.2021 09:52 2,4 C 6,1 C 0,6 C 82 % 1028,4 hPa 0,0 l/m 2 min 0 min 247 W/m 9,7 km/h (2 Bft) 97,87 %
05.03.2021 09:54 2,5 C 6,1 C 1,1 C 82 % 1028,3 hPa 0,0 l/m 0 min 0 min 163 W/m 6,4 km/h (2 Bft) 95,74 %
05.03.2021 09:56 2,6 C 6,1 C 1,1 C 82 % 1028,4 hPa 0,0 l/m 2 min 0 min 283 W/m 9,7 km/h (2 Bft) 97,87 %
05.03.2021 09:58 2,8 C 6,1 C 1,1 C 81 % 1028,4 hPa 0,0 l/m 2 min 0 min 346 W/m 6,4 km/h (2 Bft) 95,74 %
05.03.2021 10:00 2,8 C 6,1 C 1,7 C 81 % 1028,4 hPa 0,0 l/m 2 min 0 min 349 W/m 16,1 km/h (3 Bft) 97,87 %
05.03.2021 10:02 2,9 C 6,1 C 1,7 C 80 % 1028,4 hPa 0,0 l/m 2 min 0 min 286 W/m 19,3 km/h (3 Bft) 95,65 %
05.03.2021 10:04 2,9 C 7,2 C 1,7 C 79 % 1028,4 hPa 0,0 l/m 2 min 0 min 332 W/m 25,7 km/h (4 Bft) 97,87 %
05.03.2021 10:06 2,9 C 8,3 C 1,7 C 79 % 1028,5 hPa 0,0 l/m 2 min 0 min 273 W/m 9,7 km/h (2 Bft) 97,87 %
05.03.2021 10:08 2,9 C 7,8 C 2,3 C 79 % 1028,5 hPa 0,0 l/m 2 min 0 min 297 W/m 16,1 km/h (3 Bft) 97,92 %
05.03.2021 10:10 2,9 C 6,7 C 2,3 C 77 % 1028,5 hPa 0,0 l/m 2 min 0 min 351 W/m 16,1 km/h (3 Bft) 97,87 %
05.03.2021 10:12 2,9 C 6,7 C 2,3 C 77 % 1028,6 hPa 0,0 l/m 0 min 0 min 179 W/m 9,7 km/h (2 Bft) 97,87 %
05.03.2021 10:14 3,0 C 7,8 C 2,3 C 78 % 1028,5 hPa 0,0 l/m 2 min 0 min 298 W/m 6,4 km/h (2 Bft) 97,83 %
05.03.2021 10:16 3,1 C 8,9 C 2,3 C 78 % 1028,5 hPa 0,0 l/m 2 min 0 min 286 W/m 16,1 km/h (3 Bft) 97,87 %
05.03.2021 10:18 3,2 C 9,4 C 2,8 C 77 % 1028,5 hPa 0,0 l/m 0 min 0 min 168 W/m 16,1 km/h (3 Bft) 97,87 %
05.03.2021 10:20 3,3 C 9,4 C 2,3 C 77 % 1028,6 hPa 0,0 l/m 2 min 0 min 245 W/m 12,9 km/h (3 Bft) 97,87 %
05.03.2021 10:22 3,4 C 10,6 C 2,8 C 77 % 1028,6 hPa 0,0 l/m 2 min 0 min 286 W/m 16,1 km/h (3 Bft) 97,87 %
05.03.2021 10:24 3,4 C 10,6 C 2,8 C 77 % 1028,7 hPa 0,0 l/m 2 min 0 min 400 W/m 16,1 km/h (3 Bft) 95,74 %
05.03.2021 10:26 3,5 C 11,1 C 2,8 C 76 % 1028,8 hPa 0,0 l/m 2 min 0 min 446 W/m 16,1 km/h (3 Bft) 97,83 %
05.03.2021 10:28 3,5 C 11,7 C 3,4 C 76 % 1028,7 hPa 0,0 l/m 2 min 0 min 353 W/m 16,1 km/h (3 Bft) 97,87 %
05.03.2021 10:30 3,7 C 12,2 C 3,4 C 77 % 1028,7 hPa 0,0 l/m 2 min 0 min 349 W/m 12,9 km/h (3 Bft) 97,87 %
05.03.2021 10:32 3,8 C 12,8 C 3,4 C 75 % 1028,7 hPa 0,0 l/m 2 min 0 min 466 W/m 16,1 km/h (3 Bft) 97,87 %
05.03.2021 10:34 3,9 C 12,8 C 3,4 C 75 % 1028,7 hPa 0,0 l/m 2 min 0 min 476 W/m 12,9 km/h (3 Bft) 95,74 %
05.03.2021 10:36 4,0 C 13,9 C 3,9 C 75 % 1028,7 hPa 0,0 l/m 2 min 0 min 457 W/m 6,4 km/h (2 Bft) 97,83 %
05.03.2021 10:38 4,0 C 13,3 C 4,5 C 74 % 1028,7 hPa 0,0 l/m 2 min 0 min 403 W/m 16,1 km/h (3 Bft) 97,87 %
05.03.2021 10:40 4,1 C 13,9 C 5,6 C 75 % 1028,8 hPa 0,0 l/m 2 min 0 min 449 W/m 12,9 km/h (3 Bft) 97,92 %
05.03.2021 10:42 4,1 C 12,8 C 6,1 C 74 % 1028,8 hPa 0,0 l/m 2 min 0 min 434 W/m 22,5 km/h (4 Bft) 97,87 %
05.03.2021 10:44 4,1 C 11,7 C 6,7 C 73 % 1028,8 hPa 0,0 l/m 2 min 0 min 433 W/m 35,4 km/h (5 Bft) 97,83 %
05.03.2021 10:46 4,1 C 11,7 C 7,3 C 72 % 1028,9 hPa 0,0 l/m 2 min 0 min 392 W/m 16,1 km/h (3 Bft) 97,87 %
05.03.2021 10:48 4,2 C 12,2 C 7,8 C 72 % 1028,9 hPa 0,0 l/m 2 min 0 min 419 W/m 12,9 km/h (3 Bft) 97,87 %
05.03.2021 10:50 4,3 C 12,8 C 7,8 C 72 % 1028,9 hPa 0,0 l/m 2 min 0 min 423 W/m 12,9 km/h (3 Bft) 97,87 %
05.03.2021 10:52 4,3 C 13,9 C 7,3 C 72 % 1028,9 hPa 0,0 l/m 2 min 0 min 399 W/m 16,1 km/h (3 Bft) 95,74 %
05.03.2021 10:54 4,4 C 13,3 C 7,3 C 72 % 1028,9 hPa 0,0 l/m 2 min 0 min 497 W/m 19,3 km/h (3 Bft) 95,74 %
05.03.2021 10:56 4,5 C 13,9 C 7,3 C 72 % 1028,9 hPa 0,0 l/m 2 min 0 min 435 W/m 22,5 km/h (4 Bft) 97,83 %
05.03.2021 10:58 4,5 C 13,3 C 7,8 C 71 % 1028,9 hPa 0,0 l/m 2 min 0 min 345 W/m 16,1 km/h (3 Bft) 97,87 %
05.03.2021 11:00 4,6 C 13,3 C 8,9 C 71 % 1028,9 hPa 0,0 l/m 2 min 0 min 349 W/m 19,3 km/h (3 Bft) 97,87 %
05.03.2021 11:02 4,6 C 13,9 C 8,9 C 71 % 1028,8 hPa 0,0 l/m 2 min 0 min 522 W/m 16,1 km/h (3 Bft) 97,87 %
05.03.2021 11:04 4,7 C 14,4 C 10,0 C 71 % 1028,8 hPa 0,0 l/m 2 min 0 min 522 W/m 16,1 km/h (3 Bft) 97,87 %
05.03.2021 11:06 4,8 C 13,9 C 10,0 C 71 % 1028,9 hPa 0,0 l/m 2 min 0 min 464 W/m 16,1 km/h (3 Bft) 97,83 %
05.03.2021 11:08 4,9 C 14,4 C 10,6 C 71 % 1028,9 hPa 0,0 l/m 2 min 0 min 485 W/m 16,1 km/h (3 Bft) 97,87 %
05.03.2021 11:10 5,1 C 15,6 C 10,6 C 71 % 1028,9 hPa 0,0 l/m 2 min 0 min 542 W/m 9,7 km/h (2 Bft) 97,87 %
05.03.2021 11:12 5,2 C 16,1 C 11,1 C 70 % 1028,8 hPa 0,0 l/m 2 min 0 min 543 W/m 12,9 km/h (3 Bft) 97,87 %
05.03.2021 11:14 5,3 C 15,6 C 11,7 C 69 % 1028,9 hPa 0,0 l/m 2 min 0 min 546 W/m 16,1 km/h (3 Bft) 97,87 %
05.03.2021 11:16 5,4 C 15,6 C 11,7 C 68 % 1028,9 hPa 0,0 l/m 2 min 0 min 549 W/m 9,7 km/h (2 Bft) 97,87 %
05.03.2021 11:18 5,4 C 15,6 C 11,1 C 68 % 1028,9 hPa 0,0 l/m 2 min 0 min 553 W/m 16,1 km/h (3 Bft) 95,65 %
05.03.2021 11:20 5,5 C 16,1 C 11,1 C 68 % 1028,9 hPa 0,0 l/m 2 min 0 min 556 W/m 12,9 km/h (3 Bft) 95,74 %
05.03.2021 11:22 5,5 C 15,6 C 11,1 C 67 % 1028,9 hPa 0,0 l/m 2 min 0 min 557 W/m 16,1 km/h (3 Bft) 93,62 %
05.03.2021 11:24 5,5 C 15,6 C 10,6 C 68 % 1028,9 hPa 0,0 l/m 2 min 0 min 558 W/m 16,1 km/h (3 Bft) 93,62 %
05.03.2021 11:26 5,5 C 15,6 C 10,0 C 68 % 1028,9 hPa 0,0 l/m 2 min 0 min 562 W/m 22,5 km/h (4 Bft) 93,62 %
05.03.2021 11:28 5,5 C 15,0 C 10,6 C 67 % 1028,8 hPa 0,0 l/m 2 min 0 min 565 W/m 12,9 km/h (3 Bft) 95,74 %
05.03.2021 11:30 5,4 C 15,6 C 10,6 C 68 % 1028,9 hPa 0,0 l/m 2 min 0 min 567 W/m 9,7 km/h (2 Bft) 95,65 %
05.03.2021 11:32 5,5 C 16,1 C 11,1 C 68 % 1028,9 hPa 0,0 l/m 2 min 0 min 564 W/m 12,9 km/h (3 Bft) 93,62 %
05.03.2021 11:34 5,6 C 16,7 C 11,1 C 68 % 1029,0 hPa 0,0 l/m 2 min 0 min 573 W/m 9,7 km/h (2 Bft) 95,74 %
05.03.2021 11:36 5,8 C 16,7 C 11,1 C 67 % 1029,0 hPa 0,0 l/m 2 min 0 min 579 W/m 12,9 km/h (3 Bft) 95,74 %
05.03.2021 11:38 5,8 C 15,6 C 11,7 C 66 % 1029,0 hPa 0,0 l/m 2 min 0 min 573 W/m 16,1 km/h (3 Bft) 93,62 %
05.03.2021 11:40 5,9 C 16,7 C 11,1 C 66 % 1029,0 hPa 0,0 l/m 2 min 0 min 575 W/m 12,9 km/h (3 Bft) 95,74 %
05.03.2021 11:42 5,9 C 17,2 C 11,1 C 67 % 1029,1 hPa 0,0 l/m 2 min 0 min 578 W/m 6,4 km/h (2 Bft) 93,88 %
05.03.2021 11:44 6,0 C 17,2 C 10,6 C 66 % 1029,1 hPa 0,0 l/m 2 min 0 min 572 W/m 16,1 km/h (3 Bft) 95,74 %
05.03.2021 11:46 6,0 C 17,8 C 10,6 C 66 % 1029,1 hPa 0,0 l/m 2 min 0 min 578 W/m 9,7 km/h (2 Bft) 95,65 %
05.03.2021 11:48 6,0 C 17,2 C 10,0 C 65 % 1029,1 hPa 0,0 l/m 2 min 0 min 583 W/m 19,3 km/h (3 Bft) 93,62 %
05.03.2021 11:50 6,0 C 17,8 C 10,0 C 65 % 1029,1 hPa 0,0 l/m 2 min 0 min 587 W/m 6,4 km/h (2 Bft) 95,74 %
05.03.2021 11:52 6,0 C 16,7 C 9,5 C 64 % 1029,1 hPa 0,0 l/m 2 min 0 min 590 W/m 22,5 km/h (4 Bft) 97,87 %
05.03.2021 11:54 6,0 C 16,7 C 8,9 C 65 % 1029,2 hPa 0,0 l/m 2 min 0 min 590 W/m 12,9 km/h (3 Bft) 97,87 %
05.03.2021 11:56 5,9 C 16,1 C 7,8 C 65 % 1029,2 hPa 0,0 l/m 2 min 0 min 594 W/m 16,1 km/h (3 Bft) 97,87 %
05.03.2021 11:58 5,9 C 15,0 C 7,8 C 64 % 1029,1 hPa 0,0 l/m 2 min 0 min 599 W/m 9,7 km/h (2 Bft) 93,48 %
05.03.2021 12:00 5,9 C 15,0 C 7,3 C 65 % 1029,1 hPa 0,0 l/m 2 min 0 min 599 W/m 9,7 km/h (2 Bft) 97,87 %
05.03.2021 12:02 5,9 C 14,4 C 7,3 C 65 % 1029,1 hPa 0,0 l/m 2 min 0 min 601 W/m 12,9 km/h (3 Bft) 97,87 %
05.03.2021 12:04 5,9 C 14,4 C 7,8 C 64 % 1029,1 hPa 0,0 l/m 2 min 0 min 600 W/m 9,7 km/h (2 Bft) 97,87 %
05.03.2021 12:08 6,0 C 13,3 C 7,3 C 64 % 1029,2 hPa 0,0 l/m 4 min 0 min 603 W/m 25,7 km/h (4 Bft) 96,81 %
05.03.2021 12:10 6,0 C 11,7 C 7,3 C 64 % 1029,2 hPa 0,0 l/m 2 min 0 min 605 W/m 16,1 km/h (3 Bft) 95,74 %
05.03.2021 12:12 5,9 C 11,1 C 6,1 C 65 % 1029,2 hPa 0,0 l/m 2 min 0 min 604 W/m 12,9 km/h (3 Bft) 97,87 %
05.03.2021 12:14 5,9 C 9,4 C 5,0 C 64 % 1029,3 hPa 0,0 l/m 2 min 0 min 605 W/m 32,2 km/h (5 Bft) 97,87 %
05.03.2021 12:16 5,8 C 9,4 C 5,0 C 64 % 1029,2 hPa 0,0 l/m 2 min 0 min 606 W/m 16,1 km/h (3 Bft) 95,65 %
05.03.2021 12:18 5,8 C 10,0 C 4,5 C 64 % 1029,3 hPa 0,0 l/m 2 min 0 min 606 W/m 12,9 km/h (3 Bft) 95,74 %
05.03.2021 12:20 5,7 C 10,0 C 5,6 C 64 % 1029,3 hPa 0,0 l/m 2 min 0 min 604 W/m 12,9 km/h (3 Bft) 97,87 %
05.03.2021 12:22 5,6 C 10,6 C 5,6 C 65 % 1029,3 hPa 0,0 l/m 2 min 0 min 606 W/m 9,7 km/h (2 Bft) 97,87 %
05.03.2021 12:24 5,7 C 11,1 C 6,1 C 64 % 1029,4 hPa 0,0 l/m 2 min 0 min 605 W/m 9,7 km/h (2 Bft) 97,87 %
05.03.2021 12:26 5,8 C 11,1 C 5,6 C 64 % 1029,4 hPa 0,0 l/m 2 min 0 min 606 W/m 16,1 km/h (3 Bft) 95,74 %
05.03.2021 12:28 5,8 C 11,1 C 5,6 C 64 % 1029,5 hPa 0,0 l/m 2 min 0 min 612 W/m 22,5 km/h (4 Bft) 97,83 %
05.03.2021 12:30 5,8 C 11,7 C 5,6 C 63 % 1029,4 hPa 0,0 l/m 2 min 0 min 611 W/m 12,9 km/h (3 Bft) 95,74 %
05.03.2021 12:32 5,8 C 12,2 C 5,6 C 63 % 1029,4 hPa 0,0 l/m 2 min 0 min 608 W/m 12,9 km/h (3 Bft) 97,87 %
05.03.2021 12:34 5,9 C 12,8 C 6,1 C 63 % 1029,4 hPa 0,0 l/m 2 min 0 min 606 W/m 19,3 km/h (3 Bft) 95,74 %
05.03.2021 12:36 5,9 C 12,2 C 6,1 C 63 % 1029,5 hPa 0,0 l/m 2 min 0 min 600 W/m 16,1 km/h (3 Bft) 95,74 %
05.03.2021 12:38 6,0 C 12,2 C 5,6 C 62 % 1029,5 hPa 0,0 l/m 2 min 0 min 611 W/m 25,7 km/h (4 Bft) 97,83 %
05.03.2021 12:40 6,0 C 12,8 C 5,0 C 62 % 1029,4 hPa 0,0 l/m 2 min 0 min 612 W/m 16,1 km/h (3 Bft) 97,87 %
05.03.2021 12:42 6,0 C 13,9 C 3,9 C 61 % 1029,4 hPa 0,0 l/m 2 min 0 min 609 W/m 12,9 km/h (3 Bft) 97,87 %
05.03.2021 12:44 6,1 C 14,4 C 3,9 C 61 % 1029,5 hPa 0,0 l/m 2 min 0 min 607 W/m 19,3 km/h (3 Bft) 97,87 %
05.03.2021 12:46 6,1 C 15,6 C 3,9 C 62 % 1029,4 hPa 0,0 l/m 2 min 0 min 611 W/m 12,9 km/h (3 Bft) 95,74 %
05.03.2021 12:48 6,1 C 16,7 C 3,9 C 62 % 1029,5 hPa 0,0 l/m 2 min 0 min 615 W/m 16,1 km/h (3 Bft) 97,87 %
05.03.2021 12:50 6,1 C 17,2 C 3,4 C 62 % 1029,4 hPa 0,0 l/m 2 min 0 min 612 W/m 12,9 km/h (3 Bft) 97,87 %
05.03.2021 12:52 6,3 C 17,8 C 3,9 C 62 % 1029,5 hPa 0,0 l/m 2 min 0 min 609 W/m 12,9 km/h (3 Bft) 100,00 %
05.03.2021 12:54 6,4 C 17,8 C 3,9 C 62 % 1029,5 hPa 0,0 l/m 2 min 0 min 606 W/m 22,5 km/h (4 Bft) 100,00 %
05.03.2021 12:56 6,5 C 17,8 C 3,9 C 61 % 1029,5 hPa 0,0 l/m 2 min 0 min 608 W/m 19,3 km/h (3 Bft) 95,74 %
05.03.2021 12:58 6,5 C 17,2 C 3,9 C 60 % 1029,5 hPa 0,0 l/m 2 min 0 min 609 W/m 9,7 km/h (2 Bft) 97,87 %
05.03.2021 13:00 6,6 C 17,2 C 3,9 C 60 % 1029,5 hPa 0,0 l/m 2 min 0 min 605 W/m 12,9 km/h (3 Bft) 97,87 %
05.03.2021 13:02 6,7 C 17,2 C 3,9 C 60 % 1029,5 hPa 0,0 l/m 2 min 0 min 603 W/m 22,5 km/h (4 Bft) 95,65 %
05.03.2021 13:04 6,7 C 18,3 C 3,9 C 60 % 1029,5 hPa 0,0 l/m 2 min 0 min 607 W/m 9,7 km/h (2 Bft) 97,87 %
05.03.2021 13:06 6,8 C 18,9 C 3,9 C 61 % 1029,5 hPa 0,0 l/m 2 min 0 min 607 W/m 16,1 km/h (3 Bft) 93,62 %
05.03.2021 13:08 6,9 C 17,2 C 3,9 C 60 % 1029,5 hPa 0,0 l/m 2 min 0 min 609 W/m 12,9 km/h (3 Bft) 95,74 %
05.03.2021 13:10 7,0 C 17,2 C 3,9 C 59 % 1029,5 hPa 0,0 l/m 2 min 0 min 606 W/m 16,1 km/h (3 Bft) 95,74 %
05.03.2021 13:12 7,1 C 17,8 C 3,9 C 59 % 1029,5 hPa 0,0 l/m 2 min 0 min 605 W/m 16,1 km/h (3 Bft) 97,87 %
05.03.2021 13:14 7,0 C 16,7 C 3,9 C 59 % 1029,5 hPa 0,0 l/m 2 min 0 min 604 W/m 12,9 km/h (3 Bft) 97,83 %
05.03.2021 13:16 7,0 C 17,2 C 3,9 C 59 % 1029,5 hPa 0,0 l/m 2 min 0 min 600 W/m 22,5 km/h (4 Bft) 97,87 %
05.03.2021 13:18 7,1 C 17,2 C 3,9 C 58 % 1029,5 hPa 0,0 l/m 2 min 0 min 599 W/m 19,3 km/h (3 Bft) 97,87 %
05.03.2021 13:20 7,0 C 18,3 C 3,9 C 59 % 1029,5 hPa 0,0 l/m 2 min 0 min 600 W/m 19,3 km/h (3 Bft) 97,87 %
05.03.2021 13:22 7,0 C 18,3 C 3,9 C 58 % 1029,5 hPa 0,0 l/m 2 min 0 min 605 W/m 19,3 km/h (3 Bft) 97,87 %
05.03.2021 13:24 7,0 C 20,0 C 3,9 C 58 % 1029,4 hPa 0,0 l/m 2 min 0 min 600 W/m 6,4 km/h (2 Bft) 97,87 %
05.03.2021 13:26 7,0 C 21,1 C 3,9 C 57 % 1029,4 hPa 0,0 l/m 2 min 0 min 598 W/m 6,4 km/h (2 Bft) 97,83 %
05.03.2021 13:28 7,1 C 19,4 C 3,9 C 57 % 1029,4 hPa 0,0 l/m 2 min 0 min 597 W/m 16,1 km/h (3 Bft) 95,74 %
05.03.2021 13:30 7,3 C 18,9 C 3,9 C 57 % 1029,5 hPa 0,0 l/m 2 min 0 min 594 W/m 22,5 km/h (4 Bft) 100,00 %
05.03.2021 13:32 7,4 C 18,9 C 3,9 C 57 % 1029,5 hPa 0,0 l/m 2 min 0 min 593 W/m 12,9 km/h (3 Bft) 97,87 %
05.03.2021 13:34 7,5 C 19,4 C 4,5 C 57 % 1029,5 hPa 0,0 l/m 2 min 0 min 591 W/m 12,9 km/h (3 Bft) 95,74 %
05.03.2021 13:36 7,6 C 20,6 C 4,5 C 57 % 1029,5 hPa 0,0 l/m 2 min 0 min 592 W/m 9,7 km/h (2 Bft) 95,74 %
05.03.2021 13:38 7,6 C 20,0 C 4,5 C 57 % 1029,4 hPa 0,0 l/m 2 min 0 min 591 W/m 22,5 km/h (4 Bft) 97,87 %
05.03.2021 13:40 7,6 C 18,9 C 3,9 C 55 % 1029,5 hPa 0,0 l/m 2 min 0 min 591 W/m 19,3 km/h (3 Bft) 98,11 %
05.03.2021 13:42 7,5 C 19,4 C 3,9 C 55 % 1029,5 hPa 0,0 l/m 2 min 0 min 590 W/m 16,1 km/h (3 Bft) 97,83 %
05.03.2021 13:44 7,5 C 20,0 C 3,9 C 56 % 1029,5 hPa 0,0 l/m 2 min 0 min 591 W/m 12,9 km/h (3 Bft) 97,87 %
05.03.2021 13:46 7,5 C 18,9 C 3,9 C 54 % 1029,4 hPa 0,0 l/m 2 min 0 min 589 W/m 9,7 km/h (2 Bft) 97,87 %
05.03.2021 13:48 7,6 C 18,3 C 3,9 C 54 % 1029,5 hPa 0,0 l/m 2 min 0 min 586 W/m 12,9 km/h (3 Bft) 97,87 %
05.03.2021 13:50 7,7 C 18,3 C 3,9 C 54 % 1029,5 hPa 0,0 l/m 2 min 0 min 585 W/m 9,7 km/h (2 Bft) 97,87 %
05.03.2021 13:52 7,8 C 19,4 C 4,5 C 55 % 1029,5 hPa 0,0 l/m 2 min 0 min 580 W/m 19,3 km/h (3 Bft) 95,74 %
05.03.2021 13:54 7,8 C 18,9 C 4,5 C 56 % 1029,5 hPa 0,0 l/m 2 min 0 min 578 W/m 19,3 km/h (3 Bft) 95,65 %
05.03.2021 13:56 7,7 C 18,9 C 3,9 C 54 % 1029,5 hPa 0,0 l/m 2 min 0 min 575 W/m 12,9 km/h (3 Bft) 95,74 %
05.03.2021 13:58 7,7 C 18,9 C 3,9 C 55 % 1029,5 hPa 0,0 l/m 2 min 0 min 573 W/m 9,7 km/h (2 Bft) 91,49 %
05.03.2021 14:00 7,6 C 19,4 C 3,9 C 54 % 1029,5 hPa 0,0 l/m 2 min 0 min 572 W/m 22,5 km/h (4 Bft) 93,62 %
05.03.2021 14:02 7,6 C 18,9 C 3,9 C 53 % 1029,5 hPa 0,0 l/m 2 min 0 min 569 W/m 22,5 km/h (4 Bft) 93,62 %
05.03.2021 14:04 7,6 C 18,3 C 3,9 C 52 % 1029,6 hPa 0,0 l/m 2 min 0 min 565 W/m 19,3 km/h (3 Bft) 95,74 %
05.03.2021 14:06 7,6 C 18,3 C 3,9 C 52 % 1029,6 hPa 0,0 l/m 2 min 0 min 564 W/m 16,1 km/h (3 Bft) 95,65 %
05.03.2021 14:08 7,7 C 18,9 C 3,9 C 52 % 1029,6 hPa 0,0 l/m 2 min 0 min 564 W/m 19,3 km/h (3 Bft) 93,62 %
05.03.2021 14:10 7,6 C 19,4 C 3,9 C 52 % 1029,5 hPa 0,0 l/m 2 min 0 min 561 W/m 16,1 km/h (3 Bft) 96,00 %
05.03.2021 14:12 7,5 C 18,9 C 3,9 C 53 % 1029,6 hPa 0,0 l/m 2 min 0 min 559 W/m 19,3 km/h (3 Bft) 95,74 %
05.03.2021 14:14 7,5 C 18,9 C 3,9 C 53 % 1029,7 hPa 0,0 l/m 2 min 0 min 556 W/m 6,4 km/h (2 Bft) 97,87 %
05.03.2021 14:16 7,6 C 18,9 C 3,9 C 51 % 1029,7 hPa 0,0 l/m 2 min 0 min 553 W/m 16,1 km/h (3 Bft) 95,65 %
05.03.2021 14:18 7,5 C 17,8 C 3,9 C 51 % 1029,7 hPa 0,0 l/m 2 min 0 min 552 W/m 25,7 km/h (4 Bft) 97,87 %
05.03.2021 14:20 7,5 C 17,8 C 3,9 C 51 % 1029,7 hPa 0,0 l/m 2 min 0 min 547 W/m 19,3 km/h (3 Bft) 97,87 %
05.03.2021 14:22 7,5 C 18,3 C 3,9 C 51 % 1029,7 hPa 0,0 l/m 2 min 0 min 542 W/m 12,9 km/h (3 Bft) 97,87 %
05.03.2021 14:24 7,5 C 18,9 C 3,9 C 52 % 1029,7 hPa 0,0 l/m 2 min 0 min 543 W/m 12,9 km/h (3 Bft) 97,87 %
05.03.2021 14:26 7,6 C 18,9 C 3,9 C 52 % 1029,7 hPa 0,0 l/m 2 min 0 min 541 W/m 12,9 km/h (3 Bft) 97,87 %
05.03.2021 14:28 7,7 C 18,9 C 3,9 C 51 % 1029,8 hPa 0,0 l/m 2 min 0 min 540 W/m 19,3 km/h (3 Bft) 97,83 %
05.03.2021 14:30 7,7 C 18,3 C 3,9 C 51 % 1029,8 hPa 0,0 l/m 2 min 0 min 539 W/m 16,1 km/h (3 Bft) 97,87 %
05.03.2021 14:32 7,7 C 17,2 C 3,9 C 49 % 1029,8 hPa 0,0 l/m 2 min 0 min 535 W/m 25,7 km/h (4 Bft) 100,00 %
05.03.2021 14:34 7,7 C 18,9 C 3,9 C 51 % 1029,8 hPa 0,0 l/m 2 min 0 min 530 W/m 9,7 km/h (2 Bft) 97,87 %
05.03.2021 14:36 7,7 C 18,3 C 3,9 C 49 % 1029,7 hPa 0,0 l/m 2 min 0 min 528 W/m 12,9 km/h (3 Bft) 100,00 %
05.03.2021 14:38 7,8 C 18,9 C 3,9 C 50 % 1029,7 hPa 0,0 l/m 2 min 0 min 525 W/m 16,1 km/h (3 Bft) 97,87 %
05.03.2021 14:40 7,7 C 17,2 C 3,9 C 50 % 1029,7 hPa 0,0 l/m 2 min 0 min 519 W/m 29,0 km/h (5 Bft) 97,96 %
05.03.2021 14:42 7,6 C 15,6 C 3,9 C 49 % 1029,8 hPa 0,0 l/m 2 min 0 min 516 W/m 22,5 km/h (4 Bft) 100,00 %
05.03.2021 14:44 7,6 C 15,0 C 3,9 C 50 % 1029,7 hPa 0,0 l/m 2 min 0 min 512 W/m 29,0 km/h (5 Bft) 100,00 %
05.03.2021 14:46 7,6 C 15,0 C 3,9 C 49 % 1029,8 hPa 0,0 l/m 2 min 0 min 505 W/m 22,5 km/h (4 Bft) 100,00 %
05.03.2021 14:48 7,6 C 16,1 C 3,9 C 50 % 1029,8 hPa 0,0 l/m 2 min 0 min 503 W/m 9,7 km/h (2 Bft) 100,00 %
05.03.2021 14:50 7,6 C 16,7 C 4,5 C 51 % 1029,8 hPa 0,0 l/m 2 min 0 min 501 W/m 12,9 km/h (3 Bft) 100,00 %
05.03.2021 14:52 7,6 C 17,2 C 3,9 C 51 % 1029,8 hPa 0,0 l/m 2 min 0 min 498 W/m 12,9 km/h (3 Bft) 100,00 %
05.03.2021 14:54 7,6 C 17,8 C 4,5 C 51 % 1029,8 hPa 0,0 l/m 2 min 0 min 496 W/m 9,7 km/h (2 Bft) 100,00 %
05.03.2021 14:56 7,6 C 17,2 C 4,5 C 50 % 1029,8 hPa 0,0 l/m 2 min 0 min 493 W/m 16,1 km/h (3 Bft) 100,00 %
05.03.2021 14:58 7,6 C 17,8 C 4,5 C 50 % 1029,8 hPa 0,0 l/m 2 min 0 min 487 W/m 12,9 km/h (3 Bft) 100,00 %
05.03.2021 15:00 7,6 C 16,1 C 4,5 C 49 % 1029,8 hPa 0,0 l/m 2 min 0 min 484 W/m 16,1 km/h (3 Bft) 97,87 %
05.03.2021 15:02 7,6 C 15,6 C 4,5 C 49 % 1029,7 hPa 0,0 l/m 2 min 0 min 481 W/m 16,1 km/h (3 Bft) 100,00 %
05.03.2021 15:04 7,6 C 15,0 C 4,5 C 51 % 1029,8 hPa 0,0 l/m 2 min 0 min 479 W/m 12,9 km/h (3 Bft) 100,00 %
05.03.2021 15:06 7,6 C 15,0 C 4,5 C 51 % 1029,8 hPa 0,0 l/m 2 min 0 min 475 W/m 25,7 km/h (4 Bft) 100,00 %
05.03.2021 15:08 7,5 C 16,1 C 4,5 C 50 % 1029,8 hPa 0,0 l/m 2 min 0 min 471 W/m 12,9 km/h (3 Bft) 100,00 %
05.03.2021 15:10 7,5 C 16,7 C 4,5 C 51 % 1029,8 hPa 0,0 l/m 2 min 0 min 466 W/m 12,9 km/h (3 Bft) 100,00 %
05.03.2021 15:12 7,6 C 16,1 C 4,5 C 51 % 1029,9 hPa 0,0 l/m 2 min 0 min 463 W/m 19,3 km/h (3 Bft) 100,00 %
05.03.2021 15:14 7,5 C 15,6 C 4,5 C 51 % 1029,8 hPa 0,0 l/m 2 min 0 min 457 W/m 16,1 km/h (3 Bft) 100,00 %
05.03.2021 15:16 7,5 C 15,0 C 4,5 C 50 % 1029,9 hPa 0,0 l/m 2 min 0 min 455 W/m 16,1 km/h (3 Bft) 97,87 %
05.03.2021 15:18 7,6 C 14,4 C 4,5 C 50 % 1029,8 hPa 0,0 l/m 2 min 0 min 452 W/m 12,9 km/h (3 Bft) 100,00 %
05.03.2021 15:20 7,6 C 13,9 C 4,5 C 51 % 1029,8 hPa 0,0 l/m 2 min 0 min 450 W/m 12,9 km/h (3 Bft) 100,00 %
05.03.2021 15:22 7,7 C 15,0 C 4,5 C 50 % 1029,9 hPa 0,0 l/m 2 min 0 min 444 W/m 22,5 km/h (4 Bft) 100,00 %
05.03.2021 15:24 7,7 C 13,3 C 4,5 C 48 % 1029,8 hPa 0,0 l/m 2 min 0 min 444 W/m 16,1 km/h (3 Bft) 100,00 %
05.03.2021 15:26 7,7 C 13,3 C 4,5 C 49 % 1029,8 hPa 0,0 l/m 2 min 0 min 444 W/m 22,5 km/h (4 Bft) 100,00 %
05.03.2021 15:28 7,6 C 13,3 C 4,5 C 49 % 1029,9 hPa 0,0 l/m 2 min 0 min 444 W/m 16,1 km/h (3 Bft) 100,00 %
05.03.2021 15:30 7,6 C 13,9 C 4,5 C 49 % 1029,8 hPa 0,0 l/m 2 min 0 min 442 W/m 16,1 km/h (3 Bft) 100,00 %
05.03.2021 15:32 7,6 C 13,3 C 4,5 C 49 % 1029,9 hPa 0,0 l/m 2 min 0 min 372 W/m 12,9 km/h (3 Bft) 100,00 %
05.03.2021 15:34 7,6 C 11,7 C 3,9 C 48 % 1029,8 hPa 0,0 l/m 0 min 0 min 169 W/m 12,9 km/h (3 Bft) 100,00 %
05.03.2021 15:36 7,4 C 11,7 C 3,9 C 48 % 1029,9 hPa 0,0 l/m 2 min 0 min 266 W/m 16,1 km/h (3 Bft) 97,87 %
05.03.2021 15:38 7,3 C 11,1 C 3,4 C 48 % 1029,9 hPa 0,0 l/m 2 min 0 min 339 W/m 19,3 km/h (3 Bft) 100,00 %
05.03.2021 15:40 7,3 C 11,1 C 3,4 C 49 % 1029,9 hPa 0,0 l/m 2 min 0 min 368 W/m 12,9 km/h (3 Bft) 100,00 %
05.03.2021 15:42 7,2 C 12,2 C 3,4 C 50 % 1029,9 hPa 0,0 l/m 2 min 0 min 381 W/m 19,3 km/h (3 Bft) 100,00 %
05.03.2021 15:44 7,1 C 11,7 C 3,4 C 49 % 1029,9 hPa 0,0 l/m 2 min 0 min 338 W/m 16,1 km/h (3 Bft) 97,87 %
05.03.2021 15:46 7,0 C 11,7 C 3,4 C 50 % 1029,9 hPa 0,0 l/m 2 min 0 min 343 W/m 12,9 km/h (3 Bft) 100,00 %
05.03.2021 15:48 7,0 C 11,7 C 3,4 C 49 % 1029,9 hPa 0,0 l/m 2 min 0 min 348 W/m 12,9 km/h (3 Bft) 100,00 %
05.03.2021 15:50 7,0 C 13,3 C 2,8 C 51 % 1029,9 hPa 0,0 l/m 2 min 0 min 371 W/m 9,7 km/h (2 Bft) 100,00 %
05.03.2021 15:52 7,0 C 12,8 C 2,8 C 52 % 1029,9 hPa 0,0 l/m 2 min 0 min 344 W/m 19,3 km/h (3 Bft) 97,87 %
05.03.2021 15:54 6,9 C 12,2 C 2,8 C 50 % 1029,9 hPa 0,0 l/m 2 min 0 min 305 W/m 19,3 km/h (3 Bft) 93,62 %
05.03.2021 15:56 6,9 C 12,8 C 2,8 C 49 % 1029,9 hPa 0,0 l/m 2 min 0 min 347 W/m 6,4 km/h (2 Bft) 97,87 %
05.03.2021 15:58 6,9 C 13,3 C 2,8 C 51 % 1029,9 hPa 0,0 l/m 2 min 0 min 340 W/m 12,9 km/h (3 Bft) 95,65 %
05.03.2021 16:00 6,9 C 12,8 C 2,8 C 49 % 1030,0 hPa 0,0 l/m 2 min 0 min 328 W/m 16,1 km/h (3 Bft) 93,62 %
05.03.2021 16:02 6,9 C 14,4 C 2,8 C 49 % 1029,9 hPa 0,0 l/m 2 min 0 min 344 W/m 3,2 km/h (1 Bft) 95,74 %
05.03.2021 16:04 7,0 C 14,4 C 2,8 C 50 % 1030,0 hPa 0,0 l/m 2 min 0 min 342 W/m 6,4 km/h (2 Bft) 93,62 %
05.03.2021 16:06 7,0 C 15,0 C 2,8 C 50 % 1030,0 hPa 0,0 l/m 2 min 0 min 339 W/m 9,7 km/h (2 Bft) 95,74 %
05.03.2021 16:08 7,0 C 14,4 C 2,8 C 50 % 1030,0 hPa 0,0 l/m 2 min 0 min 334 W/m 12,9 km/h (3 Bft) 95,74 %
05.03.2021 16:10 7,0 C 14,4 C 2,8 C 50 % 1030,0 hPa 0,0 l/m 2 min 0 min 328 W/m 12,9 km/h (3 Bft) 95,65 %
05.03.2021 16:12 7,0 C 14,4 C 2,8 C 49 % 1030,0 hPa 0,0 l/m 2 min 0 min 321 W/m 19,3 km/h (3 Bft) 95,74 %
05.03.2021 16:14 7,0 C 15,0 C 2,8 C 50 % 1030,0 hPa 0,0 l/m 2 min 0 min 315 W/m 6,4 km/h (2 Bft) 95,74 %
05.03.2021 16:16 6,9 C 13,9 C 2,8 C 51 % 1030,0 hPa 0,0 l/m 2 min 0 min 308 W/m 16,1 km/h (3 Bft) 93,62 %
05.03.2021 16:18 6,8 C 10,6 C 2,3 C 51 % 1030,0 hPa 0,0 l/m 2 min 0 min 302 W/m 12,9 km/h (3 Bft) 95,74 %
05.03.2021 16:20 6,8 C 8,3 C 2,8 C 50 % 1030,1 hPa 0,0 l/m 2 min 0 min 296 W/m 12,9 km/h (3 Bft) 95,74 %
05.03.2021 16:22 6,7 C 7,8 C 2,8 C 49 % 1030,1 hPa 0,0 l/m 2 min 0 min 289 W/m 6,4 km/h (2 Bft) 95,65 %
05.03.2021 16:24 6,7 C 7,2 C 2,8 C 50 % 1030,1 hPa 0,0 l/m 2 min 0 min 281 W/m 19,3 km/h (3 Bft) 97,87 %
05.03.2021 16:26 6,6 C 6,7 C 2,8 C 50 % 1030,1 hPa 0,0 l/m 2 min 0 min 275 W/m 9,7 km/h (2 Bft) 95,74 %
05.03.2021 16:28 6,5 C 6,1 C 2,3 C 50 % 1030,1 hPa 0,0 l/m 2 min 0 min 268 W/m 6,4 km/h (2 Bft) 93,62 %
05.03.2021 16:30 6,5 C 6,1 C 2,3 C 52 % 1030,1 hPa 0,0 l/m 2 min 0 min 260 W/m 12,9 km/h (3 Bft) 97,87 %
05.03.2021 16:32 6,4 C 6,1 C 2,3 C 51 % 1030,1 hPa 0,0 l/m 2 min 0 min 254 W/m 9,7 km/h (2 Bft) 97,87 %
05.03.2021 16:34 6,4 C 6,1 C 2,3 C 52 % 1030,1 hPa 0,0 l/m 2 min 0 min 248 W/m 9,7 km/h (2 Bft) 97,83 %
05.03.2021 16:36 6,4 C 5,6 C 2,3 C 51 % 1030,1 hPa 0,0 l/m 2 min 0 min 242 W/m 22,5 km/h (4 Bft) 97,87 %
05.03.2021 16:38 6,3 C 5,6 C 2,3 C 50 % 1030,1 hPa 0,0 l/m 2 min 0 min 234 W/m 16,1 km/h (3 Bft) 95,74 %
05.03.2021 16:40 6,2 C 5,6 C 2,3 C 50 % 1030,1 hPa 0,0 l/m 2 min 0 min 227 W/m 9,7 km/h (2 Bft) 91,49 %
05.03.2021 16:42 6,1 C 5,6 C 2,3 C 51 % 1030,0 hPa 0,0 l/m 2 min 0 min 220 W/m 6,4 km/h (2 Bft) 97,87 %
05.03.2021 16:44 6,1 C 5,6 C 2,3 C 53 % 1030,0 hPa 0,0 l/m 2 min 0 min 213 W/m 12,9 km/h (3 Bft) 97,87 %
05.03.2021 16:46 6,0 C 5,6 C 2,3 C 53 % 1030,1 hPa 0,0 l/m 2 min 0 min 206 W/m 9,7 km/h (2 Bft) 97,83 %
05.03.2021 16:48 6,0 C 5,6 C 2,3 C 52 % 1030,0 hPa 0,0 l/m 2 min 0 min 195 W/m 9,7 km/h (2 Bft) 97,87 %
05.03.2021 16:50 5,9 C 5,6 C 2,3 C 52 % 1030,1 hPa 0,0 l/m 2 min 0 min 121 W/m 12,9 km/h (3 Bft) 95,74 %
05.03.2021 16:52 5,8 C 5,6 C 2,3 C 52 % 1030,1 hPa 0,0 l/m 0 min 0 min 75 W/m 6,4 km/h (2 Bft) 97,87 %
05.03.2021 16:54 5,8 C 5,6 C 2,3 C 52 % 1030,1 hPa 0,0 l/m 0 min 0 min 74 W/m 6,4 km/h (2 Bft) 97,87 %
05.03.2021 16:56 5,7 C 5,0 C 2,3 C 52 % 1030,0 hPa 0,0 l/m 0 min 0 min 74 W/m 9,7 km/h (2 Bft) 95,65 %
05.03.2021 16:58 5,7 C 5,0 C 2,3 C 52 % 1030,1 hPa 0,0 l/m 0 min 0 min 74 W/m 16,1 km/h (3 Bft) 97,87 %
05.03.2021 17:00 5,6 C 5,0 C 2,3 C 52 % 1030,1 hPa 0,0 l/m 0 min 0 min 74 W/m 9,7 km/h (2 Bft) 97,87 %
05.03.2021 17:02 5,6 C 5,0 C 2,3 C 51 % 1030,1 hPa 0,0 l/m 0 min 0 min 72 W/m 16,1 km/h (3 Bft) 97,87 %
05.03.2021 17:04 5,5 C 5,0 C 2,3 C 51 % 1030,1 hPa 0,0 l/m 0 min 0 min 71 W/m 9,7 km/h (2 Bft) 97,87 %
05.03.2021 17:06 5,5 C 5,0 C 2,3 C 52 % 1030,1 hPa 0,0 l/m 0 min 0 min 48 W/m 12,9 km/h (3 Bft) 93,62 %
05.03.2021 17:08 5,5 C 5,0 C 2,3 C 52 % 1030,1 hPa 0,0 l/m 0 min 0 min 31 W/m 12,9 km/h (3 Bft) 97,83 %
05.03.2021 17:10 5,4 C 5,0 C 1,7 C 52 % 1030,1 hPa 0,0 l/m 0 min 0 min 30 W/m 16,1 km/h (3 Bft) 97,87 %
05.03.2021 17:12 5,4 C 5,0 C 1,7 C 53 % 1030,2 hPa 0,0 l/m 0 min 0 min 28 W/m 9,7 km/h (2 Bft) 98,15 %
05.03.2021 17:14 5,4 C 5,0 C 1,7 C 53 % 1030,2 hPa 0,0 l/m 0 min 0 min 28 W/m 16,1 km/h (3 Bft) 100,00 %
05.03.2021 17:16 5,3 C 5,0 C 1,7 C 51 % 1030,2 hPa 0,0 l/m 0 min 0 min 28 W/m 6,4 km/h (2 Bft) 97,30 %
05.03.2021 17:18 5,3 C 5,0 C 1,7 C 51 % 1030,2 hPa 0,0 l/m 0 min 0 min 26 W/m 9,7 km/h (2 Bft) 100,00 %
05.03.2021 17:20 5,3 C 5,0 C 1,7 C 51 % 1030,3 hPa 0,0 l/m 0 min 0 min 26 W/m 16,1 km/h (3 Bft) 100,00 %
05.03.2021 17:22 5,3 C 5,0 C 1,7 C 51 % 1030,3 hPa 0,0 l/m 0 min 0 min 26 W/m 9,7 km/h (2 Bft) 100,00 %
05.03.2021 17:24 5,3 C 5,0 C 1,7 C 53 % 1030,3 hPa 0,0 l/m 0 min 0 min 26 W/m 3,2 km/h (1 Bft) 100,00 %
05.03.2021 17:26 5,2 C 4,4 C 1,7 C 53 % 1030,3 hPa 0,0 l/m 0 min 0 min 25 W/m 3,2 km/h (1 Bft) 100,00 %
05.03.2021 17:28 5,2 C 4,4 C 1,7 C 54 % 1030,3 hPa 0,0 l/m 0 min 0 min 25 W/m 6,4 km/h (2 Bft) 100,00 %
05.03.2021 17:30 5,1 C 4,4 C 1,7 C 53 % 1030,4 hPa 0,0 l/m 0 min 0 min 25 W/m 3,2 km/h (1 Bft) 100,00 %
05.03.2021 17:32 5,1 C 4,4 C 1,7 C 53 % 1030,4 hPa 0,0 l/m 0 min 0 min 24 W/m 3,2 km/h (1 Bft) 100,00 %
05.03.2021 17:34 5,1 C 4,4 C 1,7 C 54 % 1030,4 hPa 0,0 l/m 0 min 0 min 23 W/m 6,4 km/h (2 Bft) 100,00 %
05.03.2021 17:36 5,1 C 4,4 C 1,7 C 54 % 1030,4 hPa 0,0 l/m 0 min 0 min 23 W/m 12,9 km/h (3 Bft) 100,00 %
05.03.2021 17:38 5,0 C 4,4 C 1,7 C 53 % 1030,5 hPa 0,0 l/m 0 min 0 min 23 W/m 6,4 km/h (2 Bft) 100,00 %
05.03.2021 17:40 5,0 C 4,4 C 1,1 C 52 % 1030,5 hPa 0,0 l/m 0 min 0 min 24 W/m 6,4 km/h (2 Bft) 100,00 %
05.03.2021 17:42 5,0 C 4,4 C 1,1 C 52 % 1030,5 hPa 0,0 l/m 0 min 0 min 22 W/m 6,4 km/h (2 Bft) 100,00 %
05.03.2021 17:44 5,0 C 4,4 C 1,1 C 52 % 1030,5 hPa 0,0 l/m 0 min 0 min 19 W/m 19,3 km/h (3 Bft) 100,00 %
05.03.2021 17:46 4,9 C 4,4 C 1,1 C 52 % 1030,6 hPa 0,0 l/m 0 min 0 min 19 W/m 12,9 km/h (3 Bft) 98,11 %
05.03.2021 17:48 4,9 C 4,4 C 1,1 C 53 % 1030,6 hPa 0,0 l/m 0 min 0 min 19 W/m 6,4 km/h (2 Bft) 100,00 %
05.03.2021 17:50 4,9 C 3,9 C 1,1 C 52 % 1030,6 hPa 0,0 l/m 0 min 0 min 18 W/m 6,4 km/h (2 Bft) 100,00 %
05.03.2021 17:52 4,9 C 3,9 C 1,1 C 53 % 1030,6 hPa 0,0 l/m 0 min 0 min 17 W/m 9,7 km/h (2 Bft) 100,00 %
05.03.2021 17:54 4,8 C 3,9 C 1,1 C 52 % 1030,6 hPa 0,0 l/m 0 min 0 min 16 W/m 9,7 km/h (2 Bft) 100,00 %
05.03.2021 17:56 4,8 C 3,9 C 1,1 C 53 % 1030,6 hPa 0,0 l/m 0 min 0 min 16 W/m 3,2 km/h (1 Bft) 100,00 %
05.03.2021 17:58 4,8 C 3,9 C 1,1 C 53 % 1030,7 hPa 0,0 l/m 0 min 0 min 14 W/m 9,7 km/h (2 Bft) 100,00 %
05.03.2021 18:00 4,8 C 3,9 C 1,1 C 53 % 1030,7 hPa 0,0 l/m 0 min 0 min 14 W/m 3,2 km/h (1 Bft) 97,87 %
05.03.2021 18:02 4,7 C 3,9 C 1,1 C 53 % 1030,8 hPa 0,0 l/m 0 min 0 min 14 W/m 3,2 km/h (1 Bft) 100,00 %
05.03.2021 18:04 4,7 C 3,9 C 1,1 C 54 % 1030,8 hPa 0,0 l/m 0 min 0 min 12 W/m 3,2 km/h (1 Bft) 100,00 %
05.03.2021 18:08 4,6 C 3,3 C 0,6 C 54 % 1030,8 hPa 0,0 l/m 0 min 0 min 12 W/m 3,2 km/h (1 Bft) 98,02 %
05.03.2021 18:10 4,5 C 3,3 C 0,6 C 53 % 1030,9 hPa 0,0 l/m 0 min 0 min 11 W/m 6,4 km/h (2 Bft) 95,65 %
05.03.2021 18:12 4,5 C 3,3 C 0,6 C 54 % 1030,9 hPa 0,0 l/m 0 min 0 min 11 W/m 6,4 km/h (2 Bft) 95,74 %
05.03.2021 18:14 4,5 C 3,3 C 0,6 C 55 % 1030,9 hPa 0,0 l/m 0 min 0 min 10 W/m 3,2 km/h (1 Bft) 74,47 %
05.03.2021 18:16 4,4 C 3,3 C 0,6 C 55 % 1031,0 hPa 0,0 l/m 0 min 0 min 7 W/m 3,2 km/h (1 Bft) 76,60 %
05.03.2021 18:18 4,4 C 3,3 C 0,6 C 54 % 1031,0 hPa 0,0 l/m 0 min 0 min 7 W/m 3,2 km/h (1 Bft) 95,74 %
05.03.2021 18:20 4,4 C 3,3 C 0,6 C 56 % 1031,0 hPa 0,0 l/m 0 min 0 min 6 W/m 3,2 km/h (1 Bft) 95,74 %
05.03.2021 18:22 4,4 C 3,3 C 0,6 C 55 % 1031,0 hPa 0,0 l/m 0 min 0 min 5 W/m 0,0 km/h (0 Bft) 95,92 %
05.03.2021 18:24 4,3 C 2,8 C 0,0 C 55 % 1031,1 hPa 0,0 l/m 0 min 0 min 4 W/m 0,0 km/h (0 Bft) 95,74 %
05.03.2021 18:26 4,3 C 2,8 C 0,0 C 55 % 1031,1 hPa 0,0 l/m 0 min 0 min 0 W/m 0,0 km/h (0 Bft) 95,74 %
05.03.2021 18:28 4,3 C 2,8 C 0,0 C 55 % 1031,1 hPa 0,0 l/m 0 min 0 min 0 W/m 0,0 km/h (0 Bft) 95,74 %
05.03.2021 18:30 4,3 C 2,8 C 0,0 C 55 % 1031,1 hPa 0,0 l/m 0 min 0 min 0 W/m 0,0 km/h (0 Bft) 97,87 %
05.03.2021 18:32 4,2 C 2,8 C 0,0 C 56 % 1031,2 hPa 0,0 l/m 0 min 0 min 0 W/m 6,4 km/h (2 Bft) 95,65 %
05.03.2021 18:34 4,1 C 2,8 C 0,0 C 57 % 1031,2 hPa 0,0 l/m 0 min 0 min 0 W/m 0,0 km/h (0 Bft) 97,87 %
05.03.2021 18:36 4,1 C 2,2 C -0,5 C 57 % 1031,2 hPa 0,0 l/m 0 min 0 min 0 W/m 0,0 km/h (0 Bft) 97,87 %
05.03.2021 18:38 4,1 C 2,2 C -0,5 C 57 % 1031,3 hPa 0,0 l/m 0 min 0 min 0 W/m 0,0 km/h (0 Bft) 95,74 %
05.03.2021 18:40 4,0 C 2,2 C -0,5 C 57 % 1031,3 hPa 0,0 l/m 0 min 0 min 0 W/m 0,0 km/h (0 Bft) 97,87 %
05.03.2021 18:42 4,0 C 2,2 C -0,5 C 57 % 1031,3 hPa 0,0 l/m 0 min 0 min 0 W/m 0,0 km/h (0 Bft) 95,74 %
05.03.2021 18:44 4,0 C 2,2 C -0,5 C 58 % 1031,3 hPa 0,0 l/m 0 min 0 min 0 W/m 0,0 km/h (0 Bft) 93,48 %
05.03.2021 18:46 4,0 C 1,7 C -0,5 C 58 % 1031,4 hPa 0,0 l/m 0 min 0 min 0 W/m 0,0 km/h (0 Bft) 97,87 %
05.03.2021 18:48 3,9 C 1,7 C -0,5 C 59 % 1031,4 hPa 0,0 l/m 0 min 0 min 0 W/m 0,0 km/h (0 Bft) 97,87 %
05.03.2021 18:50 3,9 C 1,7 C -1,1 C 59 % 1031,4 hPa 0,0 l/m 0 min 0 min 0 W/m 0,0 km/h (0 Bft) 97,87 %
05.03.2021 18:52 3,8 C 1,7 C -1,1 C 58 % 1031,4 hPa 0,0 l/m 0 min 0 min 0 W/m 0,0 km/h (0 Bft) 97,87 %
05.03.2021 18:54 3,8 C 1,7 C -1,1 C 59 % 1031,4 hPa 0,0 l/m 0 min 0 min 0 W/m 0,0 km/h (0 Bft) 91,49 %
05.03.2021 18:56 3,7 C 1,1 C -1,1 C 60 % 1031,5 hPa 0,0 l/m 0 min 0 min 0 W/m 0,0 km/h (0 Bft) 95,65 %
05.03.2021 18:58 3,6 C 1,1 C -1,1 C 60 % 1031,5 hPa 0,0 l/m 0 min 0 min 0 W/m 0,0 km/h (0 Bft) 93,62 %
05.03.2021 19:00 3,6 C 1,1 C -1,1 C 61 % 1031,5 hPa 0,0 l/m 0 min 0 min 0 W/m 0,0 km/h (0 Bft) 95,74 %
05.03.2021 19:02 3,5 C 1,1 C -1,1 C 61 % 1031,5 hPa 0,0 l/m 0 min 0 min 0 W/m 0,0 km/h (0 Bft) 95,74 %
05.03.2021 19:04 3,5 C 1,1 C -1,1 C 61 % 1031,6 hPa 0,0 l/m 0 min 0 min 0 W/m 0,0 km/h (0 Bft) 95,74 %
05.03.2021 19:06 3,4 C 1,1 C -1,1 C 61 % 1031,6 hPa 0,0 l/m 0 min 0 min 0 W/m 0,0 km/h (0 Bft) 91,49 %
05.03.2021 19:08 3,3 C 1,1 C -1,1 C 62 % 1031,7 hPa 0,0 l/m 0 min 0 min 0 W/m 0,0 km/h (0 Bft) 95,65 %
05.03.2021 19:10 3,3 C 1,1 C -1,1 C 62 % 1031,7 hPa 0,0 l/m 0 min 0 min 0 W/m 0,0 km/h (0 Bft) 95,74 %
05.03.2021 19:12 3,2 C 1,1 C -1,1 C 62 % 1031,7 hPa 0,0 l/m 0 min 0 min 0 W/m 0,0 km/h (0 Bft) 93,62 %
05.03.2021 19:14 3,1 C 1,1 C -1,1 C 62 % 1031,7 hPa 0,0 l/m 0 min 0 min 0 W/m 0,0 km/h (0 Bft) 91,49 %
05.03.2021 19:16 3,1 C 1,1 C -1,1 C 62 % 1031,7 hPa 0,0 l/m 0 min 0 min 0 W/m 0,0 km/h (0 Bft) 91,49 %
05.03.2021 19:18 3,0 C 1,1 C -1,6 C 63 % 1031,8 hPa 0,0 l/m 0 min 0 min 0 W/m 0,0 km/h (0 Bft) 93,62 %
05.03.2021 19:20 3,0 C 1,1 C -1,6 C 64 % 1031,8 hPa 0,0 l/m 0 min 0 min 0 W/m 0,0 km/h (0 Bft) 95,65 %
05.03.2021 19:22 2,9 C 1,1 C -1,6 C 64 % 1031,8 hPa 0,0 l/m 0 min 0 min 0 W/m 0,0 km/h (0 Bft) 95,74 %
05.03.2021 19:24 2,9 C 0,6 C -1,6 C 64 % 1031,8 hPa 0,0 l/m 0 min 0 min 0 W/m 0,0 km/h (0 Bft) 93,62 %
05.03.2021 19:26 2,9 C 0,6 C -1,6 C 65 % 1031,9 hPa 0,0 l/m 0 min 0 min 0 W/m 0,0 km/h (0 Bft) 93,62 %
05.03.2021 19:28 2,8 C 0,6 C -1,6 C 65 % 1031,9 hPa 0,0 l/m 0 min 0 min 0 W/m 0,0 km/h (0 Bft) 93,62 %
05.03.2021 19:30 2,8 C 0,6 C -2,2 C 65 % 1031,9 hPa 0,0 l/m 0 min 0 min 0 W/m 0,0 km/h (0 Bft) 93,62 %
05.03.2021 19:32 2,7 C 0,6 C -2,2 C 65 % 1031,9 hPa 0,0 l/m 0 min 0 min 0 W/m 0,0 km/h (0 Bft) 91,67 %
05.03.2021 19:34 2,6 C 0,6 C -2,2 C 65 % 1031,9 hPa 0,0 l/m 0 min 0 min 0 W/m 0,0 km/h (0 Bft) 93,62 %
05.03.2021 19:36 2,6 C 0,6 C -2,2 C 65 % 1032,0 hPa 0,0 l/m 0 min 0 min 0 W/m 0,0 km/h (0 Bft) 93,62 %
05.03.2021 19:38 2,5 C 0,6 C -2,2 C 65 % 1032,0 hPa 0,0 l/m 0 min 0 min 0 W/m 0,0 km/h (0 Bft) 93,62 %
05.03.2021 19:40 2,5 C 0,6 C -2,2 C 65 % 1032,0 hPa 0,0 l/m 0 min 0 min 0 W/m 0,0 km/h (0 Bft) 93,48 %
05.03.2021 19:42 2,4 C 0,6 C -2,2 C 65 % 1032,0 hPa 0,0 l/m 0 min 0 min 0 W/m 0,0 km/h (0 Bft) 93,62 %
05.03.2021 19:44 2,4 C 0,6 C -2,2 C 65 % 1032,0 hPa 0,0 l/m 0 min 0 min 0 W/m 0,0 km/h (0 Bft) 93,62 %
05.03.2021 19:46 2,4 C 0,6 C -2,2 C 66 % 1032,1 hPa 0,0 l/m 0 min 0 min 0 W/m 0,0 km/h (0 Bft) 92,59 %
05.03.2021 19:48 2,3 C 0,6 C -2,2 C 66 % 1032,1 hPa 0,0 l/m 0 min 0 min 0 W/m 0,0 km/h (0 Bft) 91,49 %
05.03.2021 19:50 2,2 C 0,6 C -2,2 C 66 % 1032,1 hPa 0,0 l/m 0 min 0 min 0 W/m 0,0 km/h (0 Bft) 96,00 %
05.03.2021 19:52 2,1 C 0,0 C -2,2 C 66 % 1032,1 hPa 0,0 l/m 0 min 0 min 0 W/m 0,0 km/h (0 Bft) 91,67 %
05.03.2021 19:54 2,1 C 0,0 C -2,2 C 66 % 1032,1 hPa 0,0 l/m 0 min 0 min 0 W/m 0,0 km/h (0 Bft) 95,74 %
05.03.2021 19:56 2,0 C 0,0 C -2,2 C 66 % 1032,1 hPa 0,0 l/m 0 min 0 min 0 W/m 0,0 km/h (0 Bft) 94,44 %
05.03.2021 19:58 2,0 C 0,0 C -2,2 C 66 % 1032,2 hPa 0,0 l/m 0 min 0 min 0 W/m 0,0 km/h (0 Bft) 95,74 %
05.03.2021 20:00 1,9 C 0,0 C -2,7 C 66 % 1032,1 hPa 0,0 l/m 0 min 0 min 0 W/m 0,0 km/h (0 Bft) 95,74 %
05.03.2021 20:02 1,9 C 0,0 C -2,7 C 66 % 1032,2 hPa 0,0 l/m 0 min 0 min 0 W/m 0,0 km/h (0 Bft) 93,75 %
05.03.2021 20:04 1,8 C 0,0 C -2,7 C 66 % 1032,2 hPa 0,0 l/m 0 min 0 min 0 W/m 0,0 km/h (0 Bft) 93,62 %
05.03.2021 20:06 1,8 C 0,0 C -2,7 C 66 % 1032,3 hPa 0,0 l/m 0 min 0 min 0 W/m 0,0 km/h (0 Bft) 95,65 %
05.03.2021 20:08 1,7 C 0,0 C -2,7 C 66 % 1032,3 hPa 0,0 l/m 0 min 0 min 0 W/m 0,0 km/h (0 Bft) 95,74 %
05.03.2021 20:10 1,6 C 0,0 C -2,7 C 66 % 1032,3 hPa 0,0 l/m 0 min 0 min 0 W/m 0,0 km/h (0 Bft) 95,74 %
05.03.2021 20:12 1,6 C 0,0 C -2,7 C 66 % 1032,3 hPa 0,0 l/m 0 min 0 min 0 W/m 0,0 km/h (0 Bft) 97,87 %
05.03.2021 20:14 1,5 C 0,0 C -2,7 C 66 % 1032,4 hPa 0,0 l/m 0 min 0 min 0 W/m 0,0 km/h (0 Bft) 97,87 %
05.03.2021 20:16 1,5 C 0,0 C -2,7 C 67 % 1032,4 hPa 0,0 l/m 0 min 0 min 0 W/m 0,0 km/h (0 Bft) 100,00 %
05.03.2021 20:18 1,4 C 0,0 C -2,7 C 67 % 1032,4 hPa 0,0 l/m 0 min 0 min 0 W/m 0,0 km/h (0 Bft) 100,00 %
05.03.2021 20:20 1,4 C 0,0 C -2,7 C 67 % 1032,4 hPa 0,0 l/m 0 min 0 min 0 W/m 0,0 km/h (0 Bft) 100,00 %
05.03.2021 20:22 1,3 C 0,0 C -2,7 C 67 % 1032,3 hPa 0,0 l/m 0 min 0 min 0 W/m 0,0 km/h (0 Bft) 100,00 %
05.03.2021 20:24 1,3 C 0,0 C -2,7 C 67 % 1032,4 hPa 0,0 l/m 0 min 0 min 0 W/m 0,0 km/h (0 Bft) 100,00 %
05.03.2021 20:26 1,2 C 0,0 C -2,7 C 68 % 1032,4 hPa 0,0 l/m 0 min 0 min 0 W/m 0,0 km/h (0 Bft) 100,00 %
05.03.2021 20:28 1,1 C 0,0 C -2,7 C 68 % 1032,4 hPa 0,0 l/m 0 min 0 min 0 W/m 0,0 km/h (0 Bft) 100,00 %
05.03.2021 20:30 1,1 C 0,0 C -2,7 C 68 % 1032,4 hPa 0,0 l/m 0 min 0 min 0 W/m 0,0 km/h (0 Bft) 100,00 %
05.03.2021 20:32 1,0 C 0,0 C -2,7 C 67 % 1032,4 hPa 0,0 l/m 0 min 0 min 0 W/m 0,0 km/h (0 Bft) 97,87 %
05.03.2021 20:34 1,0 C -0,6 C -2,7 C 68 % 1032,5 hPa 0,0 l/m 0 min 0 min 0 W/m 0,0 km/h (0 Bft) 100,00 %
05.03.2021 20:36 1,0 C -0,6 C -2,7 C 68 % 1032,5 hPa 0,0 l/m 0 min 0 min 0 W/m 0,0 km/h (0 Bft) 100,00 %
05.03.2021 20:38 0,9 C -0,6 C -3,3 C 68 % 1032,5 hPa 0,0 l/m 0 min 0 min 0 W/m 0,0 km/h (0 Bft) 100,00 %
05.03.2021 20:40 0,9 C -0,6 C -3,3 C 68 % 1032,5 hPa 0,0 l/m 0 min 0 min 0 W/m 0,0 km/h (0 Bft) 100,00 %
05.03.2021 20:42 0,8 C -0,6 C -3,3 C 68 % 1032,5 hPa 0,0 l/m 0 min 0 min 0 W/m 0,0 km/h (0 Bft) 97,83 %
05.03.2021 20:44 0,8 C -0,6 C -3,3 C 69 % 1032,6 hPa 0,0 l/m 0 min 0 min 0 W/m 0,0 km/h (0 Bft) 100,00 %
05.03.2021 20:46 0,8 C -0,6 C -3,3 C 69 % 1032,6 hPa 0,0 l/m 0 min 0 min 0 W/m 0,0 km/h (0 Bft) 100,00 %
05.03.2021 20:48 0,7 C -0,6 C -3,3 C 69 % 1032,7 hPa 0,0 l/m 0 min 0 min 0 W/m 0,0 km/h (0 Bft) 95,74 %
05.03.2021 20:50 0,6 C -0,6 C -3,3 C 69 % 1032,6 hPa 0,0 l/m 0 min 0 min 0 W/m 0,0 km/h (0 Bft) 95,74 %
05.03.2021 20:52 0,5 C -0,6 C -3,3 C 69 % 1032,6 hPa 0,0 l/m 0 min 0 min 0 W/m 0,0 km/h (0 Bft) 97,87 %
05.03.2021 20:54 0,5 C -1,1 C -3,3 C 70 % 1032,7 hPa 0,0 l/m 0 min 0 min 0 W/m 0,0 km/h (0 Bft) 95,65 %
05.03.2021 20:56 0,5 C -1,1 C -3,3 C 70 % 1032,7 hPa 0,0 l/m 0 min 0 min 0 W/m 0,0 km/h (0 Bft) 95,74 %
05.03.2021 20:58 0,5 C -1,1 C -3,3 C 70 % 1032,7 hPa 0,0 l/m 0 min 0 min 0 W/m 0,0 km/h (0 Bft) 97,87 %
05.03.2021 21:00 0,5 C -1,1 C -3,3 C 70 % 1032,7 hPa 0,0 l/m 0 min 0 min 0 W/m 0,0 km/h (0 Bft) 97,87 %
05.03.2021 21:02 0,5 C -1,1 C -3,3 C 70 % 1032,8 hPa 0,0 l/m 0 min 0 min 0 W/m 0,0 km/h (0 Bft) 95,74 %
05.03.2021 21:04 0,4 C -1,1 C -3,3 C 71 % 1032,8 hPa 0,0 l/m 0 min 0 min 0 W/m 0,0 km/h (0 Bft) 97,83 %
05.03.2021 21:06 0,4 C -1,1 C -3,3 C 71 % 1032,8 hPa 0,0 l/m 0 min 0 min 0 W/m 0,0 km/h (0 Bft) 97,87 %
05.03.2021 21:08 0,3 C -1,1 C -3,3 C 71 % 1032,8 hPa 0,0 l/m 0 min 0 min 0 W/m 0,0 km/h (0 Bft) 97,87 %
05.03.2021 21:10 0,3 C -1,1 C -3,3 C 71 % 1032,9 hPa 0,0 l/m 0 min 0 min 0 W/m 0,0 km/h (0 Bft) 100,00 %
05.03.2021 21:12 0,2 C -1,1 C -3,3 C 71 % 1032,8 hPa 0,0 l/m 0 min 0 min 0 W/m 0,0 km/h (0 Bft) 100,00 %
05.03.2021 21:14 0,1 C -1,1 C -3,3 C 71 % 1032,9 hPa 0,0 l/m 0 min 0 min 0 W/m 0,0 km/h (0 Bft) 100,00 %
05.03.2021 21:16 0,1 C -1,1 C -3,3 C 72 % 1032,9 hPa 0,0 l/m 0 min 0 min 0 W/m 0,0 km/h (0 Bft) 100,00 %
05.03.2021 21:18 0,1 C -1,1 C -3,3 C 72 % 1032,9 hPa 0,0 l/m 0 min 0 min 0 W/m 0,0 km/h (0 Bft) 97,87 %
05.03.2021 21:20 0,0 C -1,1 C -3,3 C 72 % 1032,9 hPa 0,0 l/m 0 min 0 min 0 W/m 0,0 km/h (0 Bft) 100,00 %
05.03.2021 21:22 0,0 C -1,1 C -3,3 C 73 % 1032,9 hPa 0,0 l/m 0 min 0 min 0 W/m 0,0 km/h (0 Bft) 100,00 %
05.03.2021 21:24 0,0 C -1,1 C -3,9 C 73 % 1032,9 hPa 0,0 l/m 0 min 0 min 0 W/m 0,0 km/h (0 Bft) 100,00 %
05.03.2021 21:26 -0,1 C -1,1 C -3,9 C 73 % 1033,0 hPa 0,0 l/m 0 min 0 min 0 W/m 0,0 km/h (0 Bft) 100,00 %
05.03.2021 21:28 -0,1 C -1,1 C -3,9 C 73 % 1032,9 hPa 0,0 l/m 0 min 0 min 0 W/m 0,0 km/h (0 Bft) 97,83 %
05.03.2021 21:30 -0,1 C -1,1 C -3,9 C 73 % 1032,9 hPa 0,0 l/m 0 min 0 min 0 W/m 0,0 km/h (0 Bft) 100,00 %
05.03.2021 21:32 -0,2 C -1,1 C -3,9 C 74 % 1033,0 hPa 0,0 l/m 0 min 0 min 0 W/m 0,0 km/h (0 Bft) 100,00 %
05.03.2021 21:34 -0,2 C -1,1 C -3,9 C 74 % 1033,0 hPa 0,0 l/m 0 min 0 min 0 W/m 0,0 km/h (0 Bft) 100,00 %
05.03.2021 21:36 -0,2 C -1,7 C -3,9 C 74 % 1033,1 hPa 0,0 l/m 0 min 0 min 0 W/m 0,0 km/h (0 Bft) 100,00 %
05.03.2021 21:38 -0,3 C -1,7 C -3,9 C 74 % 1033,1 hPa 0,0 l/m 0 min 0 min 0 W/m 0,0 km/h (0 Bft) 100,00 %
05.03.2021 21:40 -0,4 C -1,7 C -3,9 C 74 % 1033,1 hPa 0,0 l/m 0 min 0 min 0 W/m 0,0 km/h (0 Bft) 100,00 %
05.03.2021 21:42 -0,4 C -1,7 C -3,9 C 75 % 1033,1 hPa 0,0 l/m 0 min 0 min 0 W/m 0,0 km/h (0 Bft) 100,00 %
05.03.2021 21:44 -0,4 C -1,7 C -3,9 C 75 % 1033,1 hPa 0,0 l/m 0 min 0 min 0 W/m 0,0 km/h (0 Bft) 100,00 %
05.03.2021 21:46 -0,5 C -1,7 C -3,9 C 75 % 1033,2 hPa 0,0 l/m 0 min 0 min 0 W/m 0,0 km/h (0 Bft) 100,00 %
05.03.2021 21:48 -0,5 C -1,7 C -3,9 C 75 % 1033,2 hPa 0,0 l/m 0 min 0 min 0 W/m 0,0 km/h (0 Bft) 56,52 %
05.03.2021 21:50 -0,5 C -1,7 C -3,9 C 75 % 1033,2 hPa 0,0 l/m 0 min 0 min 0 W/m 0,0 km/h (0 Bft) 100,00 %
05.03.2021 21:52 -0,6 C -1,7 C -3,9 C 75 % 1033,2 hPa 0,0 l/m 0 min 0 min 0 W/m 0,0 km/h (0 Bft) 100,00 %
05.03.2021 21:54 -0,6 C -1,7 C -3,9 C 75 % 1033,1 hPa 0,0 l/m 0 min 0 min 0 W/m 0,0 km/h (0 Bft) 97,87 %
05.03.2021 21:56 -0,7 C -1,7 C -3,9 C 76 % 1033,2 hPa 0,0 l/m 0 min 0 min 0 W/m 0,0 km/h (0 Bft) 100,00 %
05.03.2021 21:58 -0,7 C -1,7 C -3,9 C 76 % 1033,2 hPa 0,0 l/m 0 min 0 min 0 W/m 0,0 km/h (0 Bft) 100,00 %
05.03.2021 22:00 -0,8 C -1,7 C -3,9 C 76 % 1033,1 hPa 0,0 l/m 0 min 0 min 0 W/m 0,0 km/h (0 Bft) 97,87 %
05.03.2021 22:02 -0,9 C -1,7 C -3,9 C 76 % 1033,2 hPa 0,0 l/m 0 min 0 min 0 W/m 0,0 km/h (0 Bft) 95,74 %
05.03.2021 22:04 -0,9 C -1,7 C -3,9 C 76 % 1033,2 hPa 0,0 l/m 0 min 0 min 0 W/m 0,0 km/h (0 Bft) 97,87 %
05.03.2021 22:06 -0,9 C -1,7 C -3,9 C 76 % 1033,2 hPa 0,0 l/m 0 min 0 min 0 W/m 0,0 km/h (0 Bft) 97,87 %
05.03.2021 22:08 -1,0 C -1,7 C -3,9 C 76 % 1033,3 hPa 0,0 l/m 0 min 0 min 0 W/m 0,0 km/h (0 Bft) 95,74 %
05.03.2021 22:10 -1,0 C -1,7 C -4,4 C 77 % 1033,3 hPa 0,0 l/m 0 min 0 min 0 W/m 0,0 km/h (0 Bft) 97,83 %
05.03.2021 22:12 -1,1 C -1,7 C -4,4 C 77 % 1033,4 hPa 0,0 l/m 0 min 0 min 0 W/m 0,0 km/h (0 Bft) 95,74 %
05.03.2021 22:14 -1,1 C -1,7 C -4,4 C 77 % 1033,3 hPa 0,0 l/m 0 min 0 min 0 W/m 0,0 km/h (0 Bft) 97,87 %
05.03.2021 22:16 -1,1 C -1,7 C -4,4 C 77 % 1033,4 hPa 0,0 l/m 0 min 0 min 0 W/m 0,0 km/h (0 Bft) 97,87 %
05.03.2021 22:18 -1,1 C -1,7 C -4,4 C 77 % 1033,4 hPa 0,0 l/m 0 min 0 min 0 W/m 0,0 km/h (0 Bft) 100,00 %
05.03.2021 22:20 -1,2 C -1,7 C -4,4 C 78 % 1033,4 hPa 0,0 l/m 0 min 0 min 0 W/m 0,0 km/h (0 Bft) 100,00 %
05.03.2021 22:22 -1,2 C -1,7 C -4,4 C 78 % 1033,5 hPa 0,0 l/m 0 min 0 min 0 W/m 0,0 km/h (0 Bft) 100,00 %
05.03.2021 22:24 -1,2 C -1,7 C -4,4 C 78 % 1033,5 hPa 0,0 l/m 0 min 0 min 0 W/m 0,0 km/h (0 Bft) 100,00 %
05.03.2021 22:26 -1,3 C -1,7 C -4,4 C 78 % 1033,4 hPa 0,0 l/m 0 min 0 min 0 W/m 0,0 km/h (0 Bft) 100,00 %
05.03.2021 22:28 -1,3 C -2,2 C -4,4 C 78 % 1033,5 hPa 0,0 l/m 0 min 0 min 0 W/m 0,0 km/h (0 Bft) 100,00 %
05.03.2021 22:30 -1,4 C -2,2 C -4,4 C 78 % 1033,4 hPa 0,0 l/m 0 min 0 min 0 W/m 0,0 km/h (0 Bft) 100,00 %
05.03.2021 22:32 -1,4 C -2,2 C -4,4 C 79 % 1033,5 hPa 0,0 l/m 0 min 0 min 0 W/m 0,0 km/h (0 Bft) 97,87 %
05.03.2021 22:34 -1,4 C -2,2 C -4,4 C 79 % 1033,5 hPa 0,0 l/m 0 min 0 min 0 W/m 0,0 km/h (0 Bft) 100,00 %
05.03.2021 22:36 -1,4 C -2,2 C -4,4 C 79 % 1033,6 hPa 0,0 l/m 0 min 0 min 0 W/m 0,0 km/h (0 Bft) 97,87 %
05.03.2021 22:38 -1,4 C -2,2 C -4,4 C 79 % 1033,6 hPa 0,0 l/m 0 min 0 min 0 W/m 0,0 km/h (0 Bft) 100,00 %
05.03.2021 22:40 -1,5 C -2,2 C -4,4 C 79 % 1033,6 hPa 0,0 l/m 0 min 0 min 0 W/m 0,0 km/h (0 Bft) 100,00 %
05.03.2021 22:42 -1,5 C -2,2 C -4,4 C 79 % 1033,5 hPa 0,0 l/m 0 min 0 min 0 W/m 0,0 km/h (0 Bft) 100,00 %
05.03.2021 22:44 -1,5 C -2,2 C -4,4 C 79 % 1033,6 hPa 0,0 l/m 0 min 0 min 0 W/m 0,0 km/h (0 Bft) 97,87 %
05.03.2021 22:46 -1,5 C -2,2 C -4,4 C 79 % 1033,6 hPa 0,0 l/m 0 min 0 min 0 W/m 0,0 km/h (0 Bft) 100,00 %
05.03.2021 22:48 -1,5 C -2,2 C -4,4 C 79 % 1033,6 hPa 0,0 l/m 0 min 0 min 0 W/m 0,0 km/h (0 Bft) 100,00 %
05.03.2021 22:50 -1,5 C -2,2 C -4,4 C 79 % 1033,5 hPa 0,0 l/m 0 min 0 min 0 W/m 0,0 km/h (0 Bft) 100,00 %
05.03.2021 22:52 -1,6 C -2,2 C -4,4 C 79 % 1033,5 hPa 0,0 l/m 0 min 0 min 0 W/m 0,0 km/h (0 Bft) 100,00 %
05.03.2021 22:54 -1,6 C -2,2 C -4,4 C 79 % 1033,5 hPa 0,0 l/m 0 min 0 min 0 W/m 0,0 km/h (0 Bft) 95,74 %
05.03.2021 22:56 -1,6 C -2,2 C -4,4 C 80 % 1033,5 hPa 0,0 l/m 0 min 0 min 0 W/m 0,0 km/h (0 Bft) 85,11 %
05.03.2021 22:58 -1,7 C -2,2 C -4,4 C 80 % 1033,5 hPa 0,0 l/m 0 min 0 min 0 W/m 0,0 km/h (0 Bft) 65,85 %
05.03.2021 23:00 -1,7 C -2,2 C -4,4 C 80 % 1033,5 hPa 0,0 l/m 0 min 0 min 0 W/m 0,0 km/h (0 Bft) 100,00 %
05.03.2021 23:02 -1,7 C -2,2 C -4,4 C 80 % 1033,5 hPa 0,0 l/m 0 min 0 min 0 W/m 0,0 km/h (0 Bft) 100,00 %
05.03.2021 23:04 -1,7 C -2,8 C -4,4 C 80 % 1033,5 hPa 0,0 l/m 0 min 0 min 0 W/m 0,0 km/h (0 Bft) 97,87 %
05.03.2021 23:06 -1,8 C -2,8 C -4,4 C 81 % 1033,5 hPa 0,0 l/m 0 min 0 min 0 W/m 0,0 km/h (0 Bft) 97,87 %
05.03.2021 23:08 -1,8 C -2,8 C -4,4 C 81 % 1033,6 hPa 0,0 l/m 0 min 0 min 0 W/m 0,0 km/h (0 Bft) 100,00 %
05.03.2021 23:10 -1,9 C -2,8 C -4,4 C 81 % 1033,5 hPa 0,0 l/m 0 min 0 min 0 W/m 0,0 km/h (0 Bft) 97,87 %
05.03.2021 23:12 -1,9 C -2,8 C -5,0 C 81 % 1033,6 hPa 0,0 l/m 0 min 0 min 0 W/m 0,0 km/h (0 Bft) 97,83 %
05.03.2021 23:14 -1,9 C -2,8 C -5,0 C 81 % 1033,5 hPa 0,0 l/m 0 min 0 min 0 W/m 0,0 km/h (0 Bft) 95,74 %
05.03.2021 23:16 -1,9 C -2,8 C -5,0 C 81 % 1033,6 hPa 0,0 l/m 0 min 0 min 0 W/m 0,0 km/h (0 Bft) 95,74 %
05.03.2021 23:18 -1,9 C -2,8 C -5,0 C 81 % 1033,6 hPa 0,0 l/m 0 min 0 min 0 W/m 0,0 km/h (0 Bft) 97,87 %
05.03.2021 23:20 -2,0 C -2,8 C -5,0 C 82 % 1033,6 hPa 0,0 l/m 0 min 0 min 0 W/m 0,0 km/h (0 Bft) 95,74 %
05.03.2021 23:22 -2,0 C -2,8 C -5,0 C 82 % 1033,6 hPa 0,0 l/m 0 min 0 min 0 W/m 0,0 km/h (0 Bft) 97,87 %
05.03.2021 23:24 -2,0 C -2,8 C -5,0 C 82 % 1033,6 hPa 0,0 l/m 0 min 0 min 0 W/m 0,0 km/h (0 Bft) 95,65 %
05.03.2021 23:26 -2,0 C -2,8 C -5,0 C 82 % 1033,6 hPa 0,0 l/m 0 min 0 min 0 W/m 0,0 km/h (0 Bft) 97,87 %
05.03.2021 23:28 -2,0 C -2,8 C -5,0 C 82 % 1033,6 hPa 0,0 l/m 0 min 0 min 0 W/m 0,0 km/h (0 Bft) 100,00 %
05.03.2021 23:30 -2,0 C -2,8 C -5,0 C 82 % 1033,7 hPa 0,0 l/m 0 min 0 min 0 W/m 0,0 km/h (0 Bft) 100,00 %
05.03.2021 23:32 -2,0 C -2,8 C -5,0 C 82 % 1033,7 hPa 0,0 l/m 0 min 0 min 0 W/m 0,0 km/h (0 Bft) 97,92 %
05.03.2021 23:34 -2,1 C -2,8 C -5,0 C 82 % 1033,6 hPa 0,0 l/m 0 min 0 min 0 W/m 0,0 km/h (0 Bft) 100,00 %
05.03.2021 23:36 -2,1 C -2,8 C -5,0 C 82 % 1033,6 hPa 0,0 l/m 0 min 0 min 0 W/m 0,0 km/h (0 Bft) 100,00 %
05.03.2021 23:38 -2,1 C -2,8 C -5,0 C 83 % 1033,6 hPa 0,0 l/m 0 min 0 min 0 W/m 0,0 km/h (0 Bft) 100,00 %
05.03.2021 23:40 -2,1 C -2,8 C -5,0 C 83 % 1033,6 hPa 0,0 l/m 0 min 0 min 0 W/m 0,0 km/h (0 Bft) 100,00 %
05.03.2021 23:42 -2,1 C -2,8 C -5,0 C 83 % 1033,7 hPa 0,0 l/m 0 min 0 min 0 W/m 0,0 km/h (0 Bft) 97,96 %
05.03.2021 23:44 -2,2 C -2,8 C -5,0 C 83 % 1033,8 hPa 0,0 l/m 0 min 0 min 0 W/m 0,0 km/h (0 Bft) 100,00 %
05.03.2021 23:46 -2,2 C -2,8 C -5,0 C 83 % 1033,8 hPa 0,0 l/m 0 min 0 min 0 W/m 0,0 km/h (0 Bft) 100,00 %
05.03.2021 23:48 -2,2 C -2,8 C -5,0 C 83 % 1033,8 hPa 0,0 l/m 0 min 0 min 0 W/m 0,0 km/h (0 Bft) 100,00 %
05.03.2021 23:50 -2,2 C -2,8 C -5,0 C 83 % 1033,8 hPa 0,0 l/m 0 min 0 min 0 W/m 0,0 km/h (0 Bft) 100,00 %
05.03.2021 23:52 -2,2 C -2,8 C -4,4 C 83 % 1033,9 hPa 0,0 l/m 0 min 0 min 0 W/m 0,0 km/h (0 Bft) 97,87 %
05.03.2021 23:54 -2,2 C -2,8 C -4,4 C 83 % 1033,8 hPa 0,0 l/m 0 min 0 min 0 W/m 0,0 km/h (0 Bft) 100,00 %
05.03.2021 23:56 -2,2 C -2,8 C -4,4 C 83 % 1033,8 hPa 0,0 l/m 0 min 0 min 0 W/m 0,0 km/h (0 Bft) 100,00 %
05.03.2021 23:58 -2,3 C -2,8 C -4,4 C 83 % 1033,9 hPa 0,0 l/m 0 min 0 min 0 W/m 0,0 km/h (0 Bft) 100,00 %
_ Min-Zeit 23:58 23:04 23:12 15:24 00:00 - - - - 00:56 09:08
Minimum _ -2,3 C -2,8 C -5,0 C 48 % 1022,4 hPa - - - - 0,0 km/h (0 Bft) 47,37 %
_ Max-Zeit 13:52 13:26 11:14 03:44 23:52 00:00 12:08 02:14 12:48 10:44 03:00
Maximum _ 7,8 C 21,1 C 11,7 C 95 % 1033,9 hPa 0,0 l/m 4 min 2 min 615 W/m 35,4 km/h
O (5 Bft)
100,00 %
Durchschnitt _ 3,0 C 4,9 C 1,0 C 75 % 1028,4 hPa #0,0 l/m #7:46 h #2 min. 325 W/m 9,4 km/h (2 Bft) 97,01 %
© 2021 W. Hausmann